Wetterdaten: Sonntag, 04.06.2023
Datum Zeit Temp. Aussen Temp. o. S. Temp +5cm Feuchte Auss Luftdruck Regen Sonnenschein Regendauer Solar Windben Empfang
04.06.2023 00:00 15,8 C 14,4 C 11,1 C 52 % 1020,9 hPa 0,0 l/m 0 min 0 min 0 W/m 9,7 km/h (2 Bft) 97,87 %
04.06.2023 00:02 15,8 C 14,4 C 11,1 C 52 % 1020,9 hPa 0,0 l/m 0 min 0 min 0 W/m 3,2 km/h (1 Bft) 97,37 %
04.06.2023 00:04 15,7 C 14,4 C 11,1 C 52 % 1020,9 hPa 0,0 l/m 0 min 0 min 0 W/m 3,2 km/h (1 Bft) 100,00 %
04.06.2023 00:07 15,7 C 14,4 C 11,1 C 53 % 1020,9 hPa 0,0 l/m 0 min 0 min 0 W/m 6,4 km/h (2 Bft) 100,00 %
04.06.2023 00:08 15,7 C 14,4 C 11,1 C 52 % 1020,9 hPa 0,0 l/m 0 min 0 min 0 W/m 6,4 km/h (2 Bft) 100,00 %
04.06.2023 00:12 15,6 C 14,4 C 11,1 C 53 % 1020,9 hPa 0,0 l/m 0 min 0 min 0 W/m 3,2 km/h (1 Bft) 95,83 %
04.06.2023 00:14 15,6 C 14,4 C 11,1 C 53 % 1021,0 hPa 0,0 l/m 0 min 0 min 0 W/m 6,4 km/h (2 Bft) 100,00 %
04.06.2023 00:16 15,6 C 14,4 C 11,1 C 52 % 1021,0 hPa 0,0 l/m 0 min 0 min 0 W/m 6,4 km/h (2 Bft) 100,00 %
04.06.2023 00:18 15,5 C 14,4 C 11,1 C 53 % 1021,0 hPa 0,0 l/m 0 min 0 min 0 W/m 3,2 km/h (1 Bft) 100,00 %
04.06.2023 00:20 15,5 C 14,4 C 11,1 C 52 % 1021,0 hPa 0,0 l/m 0 min 0 min 0 W/m 6,4 km/h (2 Bft) 100,00 %
04.06.2023 00:22 15,4 C 14,4 C 11,1 C 52 % 1020,9 hPa 0,0 l/m 0 min 0 min 0 W/m 3,2 km/h (1 Bft) 100,00 %
04.06.2023 00:24 15,4 C 14,4 C 11,1 C 53 % 1021,0 hPa 0,0 l/m 0 min 0 min 0 W/m 3,2 km/h (1 Bft) 100,00 %
04.06.2023 00:26 15,4 C 14,4 C 11,1 C 53 % 1020,9 hPa 0,0 l/m 0 min 0 min 0 W/m 3,2 km/h (1 Bft) 100,00 %
04.06.2023 00:28 15,4 C 14,4 C 11,1 C 53 % 1020,9 hPa 0,0 l/m 0 min 0 min 0 W/m 6,4 km/h (2 Bft) 100,00 %
04.06.2023 00:30 15,4 C 14,4 C 11,1 C 53 % 1020,9 hPa 0,0 l/m 0 min 0 min 0 W/m 3,2 km/h (1 Bft) 97,87 %
04.06.2023 00:32 15,4 C 14,4 C 11,1 C 54 % 1020,9 hPa 0,0 l/m 0 min 0 min 0 W/m 3,2 km/h (1 Bft) 100,00 %
04.06.2023 00:34 15,4 C 14,4 C 11,1 C 53 % 1020,9 hPa 0,0 l/m 0 min 0 min 0 W/m 6,4 km/h (2 Bft) 97,87 %
04.06.2023 00:36 15,3 C 14,4 C 11,1 C 53 % 1020,9 hPa 0,0 l/m 0 min 0 min 0 W/m 3,2 km/h (1 Bft) 100,00 %
04.06.2023 00:38 15,3 C 14,4 C 11,1 C 53 % 1020,9 hPa 0,0 l/m 0 min 0 min 0 W/m 9,7 km/h (2 Bft) 100,00 %
04.06.2023 00:40 15,3 C 14,4 C 11,1 C 53 % 1020,9 hPa 0,0 l/m 0 min 0 min 0 W/m 6,4 km/h (2 Bft) 100,00 %
04.06.2023 00:42 15,3 C 14,4 C 11,1 C 53 % 1020,9 hPa 0,0 l/m 0 min 0 min 0 W/m 6,4 km/h (2 Bft) 100,00 %
04.06.2023 00:44 15,3 C 14,4 C 11,1 C 53 % 1020,9 hPa 0,0 l/m 0 min 0 min 0 W/m 3,2 km/h (1 Bft) 100,00 %
04.06.2023 00:46 15,3 C 14,4 C 11,1 C 53 % 1020,9 hPa 0,0 l/m 0 min 0 min 0 W/m 16,1 km/h (3 Bft) 100,00 %
04.06.2023 00:48 15,3 C 14,4 C 11,1 C 53 % 1020,9 hPa 0,0 l/m 0 min 0 min 0 W/m 6,4 km/h (2 Bft) 100,00 %
04.06.2023 00:50 15,2 C 14,4 C 11,1 C 54 % 1020,9 hPa 0,0 l/m 0 min 0 min 0 W/m 3,2 km/h (1 Bft) 100,00 %
04.06.2023 00:52 15,2 C 13,9 C 10,6 C 53 % 1020,9 hPa 0,0 l/m 0 min 0 min 0 W/m 6,4 km/h (2 Bft) 97,87 %
04.06.2023 00:54 15,2 C 13,9 C 10,6 C 54 % 1020,9 hPa 0,0 l/m 0 min 0 min 0 W/m 6,4 km/h (2 Bft) 100,00 %
04.06.2023 00:56 15,2 C 13,9 C 10,6 C 54 % 1021,0 hPa 0,0 l/m 0 min 0 min 0 W/m 3,2 km/h (1 Bft) 100,00 %
04.06.2023 00:58 15,1 C 13,9 C 10,6 C 54 % 1020,9 hPa 0,0 l/m 0 min 0 min 0 W/m 3,2 km/h (1 Bft) 97,87 %
04.06.2023 01:00 15,1 C 13,9 C 10,6 C 54 % 1020,9 hPa 0,0 l/m 0 min 0 min 0 W/m 3,2 km/h (1 Bft) 97,96 %
04.06.2023 01:02 15,1 C 13,9 C 10,6 C 54 % 1021,0 hPa 0,0 l/m 0 min 0 min 0 W/m 3,2 km/h (1 Bft) 97,87 %
04.06.2023 01:04 15,0 C 13,9 C 10,6 C 56 % 1021,0 hPa 0,0 l/m 0 min 0 min 0 W/m 3,2 km/h (1 Bft) 95,74 %
04.06.2023 01:06 14,9 C 13,9 C 10,6 C 56 % 1021,0 hPa 0,0 l/m 0 min 0 min 0 W/m 3,2 km/h (1 Bft) 98,31 %
04.06.2023 01:08 14,9 C 13,9 C 10,6 C 56 % 1021,0 hPa 0,0 l/m 0 min 0 min 0 W/m 3,2 km/h (1 Bft) 97,14 %
04.06.2023 01:10 14,8 C 13,3 C 10,0 C 55 % 1021,0 hPa 0,0 l/m 0 min 0 min 0 W/m 3,2 km/h (1 Bft) 97,87 %
04.06.2023 01:12 14,8 C 13,3 C 10,6 C 56 % 1021,0 hPa 0,0 l/m 0 min 0 min 0 W/m 3,2 km/h (1 Bft) 97,87 %
04.06.2023 01:14 14,8 C 13,3 C 10,0 C 56 % 1021,0 hPa 0,0 l/m 0 min 0 min 0 W/m 3,2 km/h (1 Bft) 97,87 %
04.06.2023 01:16 14,7 C 13,3 C 10,0 C 57 % 1021,0 hPa 0,0 l/m 0 min 0 min 0 W/m 3,2 km/h (1 Bft) 95,74 %
04.06.2023 01:18 14,7 C 13,3 C 10,0 C 56 % 1021,0 hPa 0,0 l/m 0 min 0 min 0 W/m 9,7 km/h (2 Bft) 97,87 %
04.06.2023 01:20 14,6 C 13,3 C 10,0 C 57 % 1021,0 hPa 0,0 l/m 0 min 0 min 0 W/m 3,2 km/h (1 Bft) 97,56 %
04.06.2023 01:22 14,6 C 13,3 C 10,0 C 56 % 1021,0 hPa 0,0 l/m 0 min 0 min 0 W/m 3,2 km/h (1 Bft) 98,00 %
04.06.2023 01:24 14,6 C 13,3 C 10,0 C 57 % 1021,0 hPa 0,0 l/m 0 min 0 min 0 W/m 3,2 km/h (1 Bft) 95,92 %
04.06.2023 01:26 14,5 C 13,3 C 10,0 C 57 % 1021,1 hPa 0,0 l/m 0 min 0 min 0 W/m 6,4 km/h (2 Bft) 97,87 %
04.06.2023 01:28 14,4 C 13,3 C 10,0 C 57 % 1021,0 hPa 0,0 l/m 0 min 0 min 0 W/m 3,2 km/h (1 Bft) 97,87 %
04.06.2023 01:30 14,4 C 13,3 C 10,0 C 57 % 1021,0 hPa 0,0 l/m 0 min 0 min 0 W/m 12,9 km/h (3 Bft) 97,87 %
04.06.2023 01:32 14,4 C 13,3 C 10,0 C 57 % 1021,0 hPa 0,0 l/m 0 min 0 min 0 W/m 3,2 km/h (1 Bft) 97,87 %
04.06.2023 01:34 14,3 C 13,3 C 10,0 C 57 % 1021,0 hPa 0,0 l/m 0 min 0 min 0 W/m 6,4 km/h (2 Bft) 97,62 %
04.06.2023 01:36 14,3 C 13,3 C 10,0 C 56 % 1021,0 hPa 0,0 l/m 0 min 0 min 0 W/m 3,2 km/h (1 Bft) 98,08 %
04.06.2023 01:38 14,3 C 13,3 C 10,0 C 57 % 1021,0 hPa 0,0 l/m 0 min 0 min 0 W/m 3,2 km/h (1 Bft) 97,87 %
04.06.2023 01:40 14,3 C 13,3 C 10,0 C 57 % 1021,0 hPa 0,0 l/m 0 min 0 min 0 W/m 6,4 km/h (2 Bft) 97,87 %
04.06.2023 01:42 14,3 C 13,3 C 10,0 C 57 % 1021,0 hPa 0,0 l/m 0 min 0 min 0 W/m 3,2 km/h (1 Bft) 97,87 %
04.06.2023 01:44 14,3 C 13,3 C 10,0 C 57 % 1020,9 hPa 0,0 l/m 0 min 0 min 0 W/m 3,2 km/h (1 Bft) 95,74 %
04.06.2023 01:46 14,3 C 13,3 C 10,0 C 57 % 1021,0 hPa 0,0 l/m 0 min 0 min 0 W/m 3,2 km/h (1 Bft) 97,83 %
04.06.2023 01:48 14,3 C 13,3 C 10,0 C 57 % 1021,0 hPa 0,0 l/m 0 min 0 min 0 W/m 3,2 km/h (1 Bft) 93,62 %
04.06.2023 01:50 14,3 C 12,8 C 9,4 C 58 % 1020,9 hPa 0,0 l/m 0 min 0 min 0 W/m 3,2 km/h (1 Bft) 97,87 %
04.06.2023 01:52 14,2 C 12,8 C 10,0 C 57 % 1021,0 hPa 0,0 l/m 0 min 0 min 0 W/m 6,4 km/h (2 Bft) 97,87 %
04.06.2023 01:54 14,2 C 12,8 C 10,0 C 58 % 1020,9 hPa 0,0 l/m 0 min 0 min 0 W/m 3,2 km/h (1 Bft) 97,87 %
04.06.2023 01:56 14,1 C 12,8 C 10,0 C 59 % 1020,9 hPa 0,0 l/m 0 min 0 min 0 W/m 3,2 km/h (1 Bft) 93,62 %
04.06.2023 01:58 14,1 C 12,8 C 10,0 C 58 % 1020,9 hPa 0,0 l/m 0 min 0 min 0 W/m 0,0 km/h (0 Bft) 95,65 %
04.06.2023 02:00 14,1 C 12,8 C 9,4 C 58 % 1020,8 hPa 0,0 l/m 0 min 0 min 0 W/m 3,2 km/h (1 Bft) 95,74 %
04.06.2023 02:02 14,1 C 12,8 C 9,4 C 59 % 1020,8 hPa 0,0 l/m 0 min 0 min 0 W/m 3,2 km/h (1 Bft) 95,74 %
04.06.2023 02:04 14,0 C 12,8 C 9,4 C 58 % 1020,8 hPa 0,0 l/m 0 min 0 min 0 W/m 3,2 km/h (1 Bft) 97,96 %
04.06.2023 02:06 13,9 C 12,8 C 9,4 C 59 % 1020,8 hPa 0,0 l/m 0 min 0 min 0 W/m 3,2 km/h (1 Bft) 97,87 %
04.06.2023 02:08 13,9 C 12,8 C 9,4 C 59 % 1020,9 hPa 0,0 l/m 0 min 0 min 0 W/m 3,2 km/h (1 Bft) 97,87 %
04.06.2023 02:10 13,9 C 12,8 C 9,4 C 59 % 1020,8 hPa 0,0 l/m 0 min 0 min 0 W/m 3,2 km/h (1 Bft) 97,62 %
04.06.2023 02:12 13,8 C 12,8 C 9,4 C 60 % 1020,8 hPa 0,0 l/m 0 min 0 min 0 W/m 3,2 km/h (1 Bft) 97,87 %
04.06.2023 02:14 13,8 C 12,8 C 9,4 C 59 % 1020,8 hPa 0,0 l/m 0 min 0 min 0 W/m 3,2 km/h (1 Bft) 97,87 %
04.06.2023 02:16 13,8 C 12,8 C 9,4 C 60 % 1020,9 hPa 0,0 l/m 0 min 0 min 0 W/m 3,2 km/h (1 Bft) 95,92 %
04.06.2023 02:18 13,7 C 12,8 C 9,4 C 60 % 1020,8 hPa 0,0 l/m 0 min 0 min 0 W/m 6,4 km/h (2 Bft) 97,87 %
04.06.2023 02:20 13,7 C 12,8 C 9,4 C 60 % 1020,9 hPa 0,0 l/m 0 min 0 min 0 W/m 3,2 km/h (1 Bft) 94,74 %
04.06.2023 02:22 13,7 C 12,8 C 9,4 C 60 % 1020,8 hPa 0,0 l/m 0 min 0 min 0 W/m 3,2 km/h (1 Bft) 97,87 %
04.06.2023 02:24 13,7 C 12,8 C 9,4 C 60 % 1020,8 hPa 0,0 l/m 0 min 0 min 0 W/m 3,2 km/h (1 Bft) 95,74 %
04.06.2023 02:26 13,6 C 12,8 C 9,4 C 60 % 1020,8 hPa 0,0 l/m 0 min 0 min 0 W/m 3,2 km/h (1 Bft) 95,74 %
04.06.2023 02:28 13,6 C 12,8 C 9,4 C 60 % 1020,8 hPa 0,0 l/m 0 min 0 min 0 W/m 6,4 km/h (2 Bft) 97,83 %
04.06.2023 02:30 13,6 C 12,8 C 9,4 C 59 % 1020,8 hPa 0,0 l/m 0 min 0 min 0 W/m 3,2 km/h (1 Bft) 97,87 %
04.06.2023 02:32 13,6 C 12,2 C 9,4 C 60 % 1020,8 hPa 0,0 l/m 0 min 0 min 0 W/m 0,0 km/h (0 Bft) 97,87 %
04.06.2023 02:34 13,6 C 12,2 C 9,4 C 61 % 1020,8 hPa 0,0 l/m 0 min 0 min 0 W/m 0,0 km/h (0 Bft) 95,74 %
04.06.2023 02:36 13,6 C 12,2 C 8,9 C 62 % 1020,8 hPa 0,0 l/m 0 min 0 min 0 W/m 0,0 km/h (0 Bft) 93,62 %
04.06.2023 02:38 13,5 C 12,2 C 8,9 C 62 % 1020,8 hPa 0,0 l/m 0 min 0 min 0 W/m 3,2 km/h (1 Bft) 95,74 %
04.06.2023 02:40 13,5 C 12,2 C 9,4 C 60 % 1020,8 hPa 0,0 l/m 0 min 0 min 0 W/m 3,2 km/h (1 Bft) 95,65 %
04.06.2023 02:42 13,4 C 12,2 C 9,4 C 60 % 1020,7 hPa 0,0 l/m 0 min 0 min 0 W/m 3,2 km/h (1 Bft) 95,74 %
04.06.2023 02:44 13,4 C 12,2 C 8,9 C 61 % 1020,7 hPa 0,0 l/m 0 min 0 min 0 W/m 3,2 km/h (1 Bft) 95,74 %
04.06.2023 02:46 13,4 C 12,2 C 9,4 C 62 % 1020,8 hPa 0,0 l/m 0 min 0 min 0 W/m 3,2 km/h (1 Bft) 95,74 %
04.06.2023 02:48 13,4 C 12,2 C 8,9 C 61 % 1020,8 hPa 0,0 l/m 0 min 0 min 0 W/m 0,0 km/h (0 Bft) 95,74 %
04.06.2023 02:50 13,4 C 12,2 C 8,9 C 61 % 1020,8 hPa 0,0 l/m 0 min 0 min 0 W/m 3,2 km/h (1 Bft) 95,74 %
04.06.2023 02:52 13,3 C 12,2 C 8,9 C 61 % 1020,8 hPa 0,0 l/m 0 min 0 min 0 W/m 3,2 km/h (1 Bft) 93,62 %
04.06.2023 02:54 13,3 C 12,2 C 8,9 C 60 % 1020,8 hPa 0,0 l/m 0 min 0 min 0 W/m 6,4 km/h (2 Bft) 93,48 %
04.06.2023 02:56 13,3 C 12,2 C 9,4 C 60 % 1020,7 hPa 0,0 l/m 0 min 0 min 0 W/m 6,4 km/h (2 Bft) 93,62 %
04.06.2023 02:58 13,3 C 12,2 C 8,9 C 60 % 1020,7 hPa 0,0 l/m 0 min 0 min 0 W/m 3,2 km/h (1 Bft) 97,87 %
04.06.2023 03:00 13,3 C 12,2 C 8,9 C 61 % 1020,7 hPa 0,0 l/m 0 min 0 min 0 W/m 3,2 km/h (1 Bft) 97,87 %
04.06.2023 03:02 13,3 C 12,2 C 8,9 C 61 % 1020,7 hPa 0,0 l/m 0 min 0 min 0 W/m 0,0 km/h (0 Bft) 97,87 %
04.06.2023 03:04 13,3 C 12,2 C 8,9 C 62 % 1020,7 hPa 0,0 l/m 0 min 0 min 0 W/m 3,2 km/h (1 Bft) 100,00 %
04.06.2023 03:06 13,2 C 12,2 C 8,9 C 62 % 1020,8 hPa 0,0 l/m 0 min 0 min 0 W/m 3,2 km/h (1 Bft) 98,28 %
04.06.2023 03:08 13,2 C 12,2 C 8,9 C 62 % 1020,8 hPa 0,0 l/m 0 min 0 min 0 W/m 3,2 km/h (1 Bft) 100,00 %
04.06.2023 03:10 13,1 C 12,2 C 8,9 C 62 % 1020,8 hPa 0,0 l/m 0 min 0 min 0 W/m 3,2 km/h (1 Bft) 100,00 %
04.06.2023 03:12 13,1 C 11,7 C 8,9 C 63 % 1020,8 hPa 0,0 l/m 0 min 0 min 0 W/m 3,2 km/h (1 Bft) 100,00 %
04.06.2023 03:14 13,1 C 11,7 C 8,9 C 62 % 1020,8 hPa 0,0 l/m 0 min 0 min 0 W/m 6,4 km/h (2 Bft) 97,96 %
04.06.2023 03:16 13,0 C 12,2 C 8,9 C 62 % 1020,8 hPa 0,0 l/m 0 min 0 min 0 W/m 3,2 km/h (1 Bft) 97,87 %
04.06.2023 03:18 13,0 C 12,2 C 8,9 C 62 % 1020,8 hPa 0,0 l/m 0 min 0 min 0 W/m 3,2 km/h (1 Bft) 100,00 %
04.06.2023 03:20 13,0 C 11,7 C 8,9 C 62 % 1020,8 hPa 0,0 l/m 0 min 0 min 0 W/m 0,0 km/h (0 Bft) 100,00 %
04.06.2023 03:22 12,9 C 11,7 C 8,9 C 62 % 1020,8 hPa 0,0 l/m 0 min 0 min 0 W/m 3,2 km/h (1 Bft) 97,87 %
04.06.2023 03:24 12,9 C 11,7 C 8,9 C 62 % 1020,8 hPa 0,0 l/m 0 min 0 min 0 W/m 3,2 km/h (1 Bft) 95,74 %
04.06.2023 03:26 12,9 C 11,7 C 8,9 C 62 % 1020,8 hPa 0,0 l/m 0 min 0 min 0 W/m 9,7 km/h (2 Bft) 95,65 %
04.06.2023 03:28 12,9 C 11,7 C 8,9 C 62 % 1020,8 hPa 0,0 l/m 0 min 0 min 0 W/m 9,7 km/h (2 Bft) 97,87 %
04.06.2023 03:30 12,8 C 11,7 C 8,9 C 62 % 1020,8 hPa 0,0 l/m 0 min 0 min 0 W/m 6,4 km/h (2 Bft) 100,00 %
04.06.2023 03:32 12,8 C 11,7 C 8,9 C 62 % 1020,9 hPa 0,0 l/m 0 min 0 min 0 W/m 3,2 km/h (1 Bft) 95,74 %
04.06.2023 03:34 12,8 C 11,7 C 8,9 C 62 % 1020,8 hPa 0,0 l/m 0 min 0 min 0 W/m 3,2 km/h (1 Bft) 100,00 %
04.06.2023 03:36 12,8 C 11,7 C 8,3 C 62 % 1020,8 hPa 0,0 l/m 0 min 0 min 0 W/m 3,2 km/h (1 Bft) 100,00 %
04.06.2023 03:38 12,8 C 11,7 C 8,3 C 63 % 1020,8 hPa 0,0 l/m 0 min 0 min 0 W/m 3,2 km/h (1 Bft) 100,00 %
04.06.2023 03:40 12,8 C 11,7 C 8,3 C 63 % 1020,9 hPa 0,0 l/m 0 min 0 min 0 W/m 3,2 km/h (1 Bft) 97,87 %
04.06.2023 03:42 12,7 C 11,7 C 8,3 C 63 % 1020,8 hPa 0,0 l/m 0 min 0 min 0 W/m 3,2 km/h (1 Bft) 97,83 %
04.06.2023 03:44 12,7 C 11,7 C 8,3 C 63 % 1020,8 hPa 0,0 l/m 0 min 0 min 0 W/m 12,9 km/h (3 Bft) 97,87 %
04.06.2023 03:46 12,7 C 11,7 C 8,3 C 63 % 1020,8 hPa 0,0 l/m 0 min 0 min 0 W/m 9,7 km/h (2 Bft) 97,87 %
04.06.2023 03:48 12,7 C 11,7 C 8,3 C 64 % 1020,8 hPa 0,0 l/m 0 min 0 min 0 W/m 3,2 km/h (1 Bft) 98,15 %
04.06.2023 03:50 12,6 C 11,7 C 8,3 C 64 % 1020,8 hPa 0,0 l/m 0 min 0 min 0 W/m 3,2 km/h (1 Bft) 97,87 %
04.06.2023 03:52 12,6 C 11,7 C 8,3 C 64 % 1020,8 hPa 0,0 l/m 0 min 0 min 0 W/m 3,2 km/h (1 Bft) 97,87 %
04.06.2023 03:54 12,6 C 11,7 C 8,3 C 65 % 1020,8 hPa 0,0 l/m 0 min 0 min 0 W/m 3,2 km/h (1 Bft) 97,83 %
04.06.2023 03:56 12,6 C 11,1 C 8,3 C 65 % 1020,8 hPa 0,0 l/m 0 min 0 min 0 W/m 3,2 km/h (1 Bft) 95,74 %
04.06.2023 03:58 12,6 C 11,1 C 8,3 C 66 % 1020,8 hPa 0,0 l/m 0 min 0 min 0 W/m 0,0 km/h (0 Bft) 97,87 %
04.06.2023 04:00 12,5 C 11,1 C 8,3 C 66 % 1020,8 hPa 0,0 l/m 0 min 0 min 0 W/m 0,0 km/h (0 Bft) 97,87 %
04.06.2023 04:05 12,4 C 11,1 C 7,8 C 66 % 1020,8 hPa 0,0 l/m 0 min 0 min 0 W/m 3,2 km/h (1 Bft) 96,72 %
04.06.2023 04:06 12,4 C 11,1 C 7,8 C 66 % 1020,8 hPa 0,0 l/m 0 min 0 min 0 W/m 3,2 km/h (1 Bft) 92,86 %
04.06.2023 04:08 12,4 C 11,1 C 7,8 C 66 % 1020,8 hPa 0,0 l/m 0 min 0 min 0 W/m 3,2 km/h (1 Bft) 94,29 %
04.06.2023 04:10 12,3 C 11,1 C 7,8 C 67 % 1020,9 hPa 0,0 l/m 0 min 0 min 0 W/m 0,0 km/h (0 Bft) 95,74 %
04.06.2023 04:12 12,3 C 11,1 C 7,8 C 67 % 1020,9 hPa 0,0 l/m 0 min 0 min 0 W/m 3,2 km/h (1 Bft) 95,83 %
04.06.2023 04:14 12,3 C 11,1 C 7,8 C 68 % 1020,8 hPa 0,0 l/m 0 min 0 min 0 W/m 3,2 km/h (1 Bft) 95,65 %
04.06.2023 04:16 12,3 C 11,1 C 7,8 C 68 % 1020,9 hPa 0,0 l/m 0 min 0 min 0 W/m 3,2 km/h (1 Bft) 97,87 %
04.06.2023 04:18 12,2 C 11,1 C 7,8 C 68 % 1020,8 hPa 0,0 l/m 0 min 0 min 0 W/m 3,2 km/h (1 Bft) 98,00 %
04.06.2023 04:20 12,2 C 11,1 C 7,8 C 68 % 1020,8 hPa 0,0 l/m 0 min 0 min 0 W/m 3,2 km/h (1 Bft) 97,87 %
04.06.2023 04:22 12,1 C 11,1 C 7,8 C 69 % 1020,9 hPa 0,0 l/m 0 min 0 min 0 W/m 3,2 km/h (1 Bft) 95,92 %
04.06.2023 04:24 12,1 C 10,6 C 7,8 C 69 % 1021,0 hPa 0,0 l/m 0 min 0 min 0 W/m 0,0 km/h (0 Bft) 97,87 %
04.06.2023 04:26 12,1 C 10,6 C 7,8 C 69 % 1021,0 hPa 0,0 l/m 0 min 0 min 0 W/m 0,0 km/h (0 Bft) 95,65 %
04.06.2023 04:28 12,1 C 10,6 C 7,8 C 70 % 1020,9 hPa 0,0 l/m 0 min 0 min 0 W/m 0,0 km/h (0 Bft) 97,87 %
04.06.2023 04:30 12,1 C 10,6 C 7,8 C 70 % 1021,0 hPa 0,0 l/m 0 min 0 min 0 W/m 3,2 km/h (1 Bft) 97,87 %
04.06.2023 04:32 12,0 C 10,6 C 7,8 C 70 % 1020,9 hPa 0,0 l/m 0 min 0 min 0 W/m 3,2 km/h (1 Bft) 97,87 %
04.06.2023 04:34 11,9 C 10,6 C 7,8 C 70 % 1021,0 hPa 0,0 l/m 0 min 0 min 0 W/m 0,0 km/h (0 Bft) 95,74 %
04.06.2023 04:36 11,9 C 10,6 C 7,8 C 70 % 1021,0 hPa 0,0 l/m 0 min 0 min 0 W/m 0,0 km/h (0 Bft) 100,00 %
04.06.2023 04:38 11,9 C 10,6 C 7,8 C 71 % 1020,9 hPa 0,0 l/m 0 min 0 min 0 W/m 0,0 km/h (0 Bft) 100,00 %
04.06.2023 04:40 11,8 C 10,6 C 7,8 C 71 % 1021,0 hPa 0,0 l/m 0 min 0 min 0 W/m 3,2 km/h (1 Bft) 100,00 %
04.06.2023 04:42 11,8 C 10,6 C 7,8 C 72 % 1020,9 hPa 0,0 l/m 0 min 0 min 0 W/m 0,0 km/h (0 Bft) 97,87 %
04.06.2023 04:44 11,8 C 10,6 C 7,2 C 72 % 1021,0 hPa 0,0 l/m 0 min 0 min 0 W/m 0,0 km/h (0 Bft) 100,00 %
04.06.2023 04:46 11,8 C 10,6 C 7,8 C 72 % 1021,0 hPa 0,0 l/m 0 min 0 min 0 W/m 3,2 km/h (1 Bft) 100,00 %
04.06.2023 04:48 11,8 C 10,6 C 7,2 C 72 % 1021,0 hPa 0,0 l/m 0 min 0 min 0 W/m 6,4 km/h (2 Bft) 97,87 %
04.06.2023 04:50 11,7 C 10,6 C 7,8 C 72 % 1021,0 hPa 0,0 l/m 0 min 0 min 0 W/m 3,2 km/h (1 Bft) 100,00 %
04.06.2023 04:52 11,7 C 10,6 C 7,2 C 72 % 1021,0 hPa 0,0 l/m 0 min 0 min 0 W/m 0,0 km/h (0 Bft) 100,00 %
04.06.2023 04:54 11,7 C 10,6 C 7,2 C 72 % 1021,0 hPa 0,0 l/m 0 min 0 min 0 W/m 0,0 km/h (0 Bft) 100,00 %
04.06.2023 04:56 11,7 C 10,6 C 7,2 C 72 % 1021,0 hPa 0,0 l/m 0 min 0 min 0 W/m 0,0 km/h (0 Bft) 97,87 %
04.06.2023 04:58 11,7 C 10,6 C 7,2 C 73 % 1021,0 hPa 0,0 l/m 0 min 0 min 0 W/m 0,0 km/h (0 Bft) 100,00 %
04.06.2023 05:00 11,7 C 10,6 C 7,2 C 73 % 1021,0 hPa 0,0 l/m 0 min 0 min 0 W/m 0,0 km/h (0 Bft) 100,00 %
04.06.2023 05:02 11,6 C 10,0 C 7,2 C 73 % 1021,0 hPa 0,0 l/m 0 min 0 min 0 W/m 0,0 km/h (0 Bft) 97,87 %
04.06.2023 05:04 11,6 C 10,0 C 7,2 C 73 % 1021,0 hPa 0,0 l/m 0 min 0 min 0 W/m 0,0 km/h (0 Bft) 100,00 %
04.06.2023 05:06 11,6 C 10,0 C 7,2 C 74 % 1021,0 hPa 0,0 l/m 0 min 0 min 0 W/m 0,0 km/h (0 Bft) 100,00 %
04.06.2023 05:08 11,5 C 10,0 C 7,2 C 74 % 1021,0 hPa 0,0 l/m 0 min 0 min 0 W/m 0,0 km/h (0 Bft) 100,00 %
04.06.2023 05:10 11,5 C 10,0 C 7,2 C 74 % 1021,0 hPa 0,0 l/m 0 min 0 min 0 W/m 0,0 km/h (0 Bft) 100,00 %
04.06.2023 05:12 11,4 C 10,0 C 7,2 C 74 % 1021,0 hPa 0,0 l/m 0 min 0 min 0 W/m 0,0 km/h (0 Bft) 100,00 %
04.06.2023 05:14 11,4 C 10,0 C 7,2 C 75 % 1021,0 hPa 0,0 l/m 0 min 0 min 0 W/m 0,0 km/h (0 Bft) 100,00 %
04.06.2023 05:16 11,4 C 10,0 C 7,2 C 75 % 1021,0 hPa 0,0 l/m 0 min 0 min 0 W/m 0,0 km/h (0 Bft) 95,74 %
04.06.2023 05:18 11,4 C 10,0 C 7,2 C 75 % 1021,0 hPa 0,0 l/m 0 min 0 min 0 W/m 0,0 km/h (0 Bft) 100,00 %
04.06.2023 05:20 11,3 C 10,0 C 7,2 C 75 % 1020,9 hPa 0,0 l/m 0 min 0 min 0 W/m 3,2 km/h (1 Bft) 100,00 %
04.06.2023 05:22 11,3 C 10,0 C 7,2 C 75 % 1021,0 hPa 0,0 l/m 0 min 0 min 0 W/m 3,2 km/h (1 Bft) 100,00 %
04.06.2023 05:24 11,3 C 10,6 C 7,2 C 75 % 1021,0 hPa 0,0 l/m 0 min 0 min 0 W/m 3,2 km/h (1 Bft) 100,00 %
04.06.2023 05:26 11,3 C 10,6 C 7,2 C 75 % 1021,0 hPa 0,0 l/m 0 min 0 min 0 W/m 0,0 km/h (0 Bft) 100,00 %
04.06.2023 05:28 11,3 C 10,6 C 7,2 C 75 % 1021,1 hPa 0,0 l/m 0 min 0 min 2 W/m 0,0 km/h (0 Bft) 97,87 %
04.06.2023 05:30 11,3 C 10,0 C 7,2 C 76 % 1021,0 hPa 0,0 l/m 0 min 0 min 5 W/m 0,0 km/h (0 Bft) 100,00 %
04.06.2023 05:32 11,2 C 10,0 C 7,2 C 76 % 1021,0 hPa 0,0 l/m 0 min 0 min 5 W/m 3,2 km/h (1 Bft) 97,87 %
04.06.2023 05:34 11,2 C 10,0 C 7,2 C 76 % 1021,1 hPa 0,0 l/m 0 min 0 min 5 W/m 3,2 km/h (1 Bft) 97,87 %
04.06.2023 05:36 11,2 C 10,0 C 7,2 C 76 % 1021,0 hPa 0,0 l/m 0 min 0 min 7 W/m 0,0 km/h (0 Bft) 100,00 %
04.06.2023 05:38 11,2 C 10,0 C 7,2 C 76 % 1021,1 hPa 0,0 l/m 0 min 0 min 7 W/m 0,0 km/h (0 Bft) 100,00 %
04.06.2023 05:40 11,2 C 10,0 C 7,2 C 76 % 1021,0 hPa 0,0 l/m 0 min 0 min 7 W/m 3,2 km/h (1 Bft) 100,00 %
04.06.2023 05:42 11,2 C 10,0 C 7,2 C 76 % 1021,1 hPa 0,0 l/m 0 min 0 min 8 W/m 3,2 km/h (1 Bft) 93,48 %
04.06.2023 05:44 11,2 C 10,0 C 7,2 C 76 % 1021,0 hPa 0,0 l/m 0 min 0 min 9 W/m 0,0 km/h (0 Bft) 95,74 %
04.06.2023 05:46 11,2 C 10,0 C 7,2 C 76 % 1021,1 hPa 0,0 l/m 0 min 0 min 9 W/m 0,0 km/h (0 Bft) 93,62 %
04.06.2023 05:48 11,1 C 10,0 C 7,2 C 77 % 1021,1 hPa 0,0 l/m 0 min 0 min 11 W/m 0,0 km/h (0 Bft) 95,74 %
04.06.2023 05:50 11,1 C 10,0 C 7,2 C 77 % 1021,1 hPa 0,0 l/m 0 min 0 min 11 W/m 3,2 km/h (1 Bft) 95,74 %
04.06.2023 05:52 11,1 C 10,0 C 7,2 C 77 % 1021,0 hPa 0,0 l/m 0 min 0 min 11 W/m 0,0 km/h (0 Bft) 93,62 %
04.06.2023 05:54 11,1 C 10,0 C 7,2 C 77 % 1021,1 hPa 0,0 l/m 0 min 0 min 12 W/m 3,2 km/h (1 Bft) 93,62 %
04.06.2023 05:56 11,1 C 10,0 C 7,2 C 78 % 1021,1 hPa 0,0 l/m 0 min 0 min 12 W/m 0,0 km/h (0 Bft) 91,30 %
04.06.2023 05:58 11,1 C 10,6 C 7,2 C 78 % 1021,1 hPa 0,0 l/m 0 min 0 min 12 W/m 3,2 km/h (1 Bft) 91,67 %
04.06.2023 06:00 11,1 C 10,6 C 7,2 C 78 % 1021,1 hPa 0,0 l/m 0 min 0 min 13 W/m 0,0 km/h (0 Bft) 91,49 %
04.06.2023 06:02 11,1 C 10,6 C 7,2 C 78 % 1021,0 hPa 0,0 l/m 0 min 0 min 14 W/m 0,0 km/h (0 Bft) 93,62 %
04.06.2023 06:04 11,1 C 10,6 C 7,2 C 78 % 1021,0 hPa 0,0 l/m 0 min 0 min 14 W/m 0,0 km/h (0 Bft) 93,48 %
04.06.2023 06:08 11,1 C 10,6 C 7,2 C 78 % 1021,0 hPa 0,0 l/m 0 min 0 min 16 W/m 3,2 km/h (1 Bft) 93,75 %
04.06.2023 06:12 11,1 C 10,6 C 7,2 C 78 % 1021,0 hPa 0,0 l/m 0 min 0 min 18 W/m 3,2 km/h (1 Bft) 89,74 %
04.06.2023 06:14 11,1 C 10,6 C 7,2 C 78 % 1021,0 hPa 0,0 l/m 0 min 0 min 18 W/m 0,0 km/h (0 Bft) 95,74 %
04.06.2023 06:16 11,1 C 10,6 C 7,2 C 78 % 1021,0 hPa 0,0 l/m 0 min 0 min 18 W/m 0,0 km/h (0 Bft) 93,62 %
04.06.2023 06:18 11,1 C 10,6 C 7,2 C 78 % 1021,0 hPa 0,0 l/m 0 min 0 min 18 W/m 0,0 km/h (0 Bft) 82,14 %
04.06.2023 06:20 11,1 C 10,6 C 7,2 C 79 % 1021,1 hPa 0,0 l/m 0 min 0 min 19 W/m 0,0 km/h (0 Bft) 48,15 %
04.06.2023 06:22 11,1 C 10,6 C 7,2 C 79 % 1021,0 hPa 0,0 l/m 0 min 0 min 19 W/m 3,2 km/h (1 Bft) 97,37 %
04.06.2023 06:24 11,1 C 10,6 C 7,2 C 79 % 1021,0 hPa 0,0 l/m 0 min 0 min 19 W/m 0,0 km/h (0 Bft) 95,92 %
04.06.2023 06:26 11,1 C 10,6 C 7,2 C 79 % 1021,0 hPa 0,0 l/m 0 min 0 min 21 W/m 3,2 km/h (1 Bft) 95,74 %
04.06.2023 06:28 11,1 C 10,6 C 7,2 C 79 % 1021,0 hPa 0,0 l/m 0 min 0 min 21 W/m 3,2 km/h (1 Bft) 97,87 %
04.06.2023 06:30 11,1 C 10,6 C 7,2 C 79 % 1021,1 hPa 0,0 l/m 0 min 0 min 21 W/m 3,2 km/h (1 Bft) 97,87 %
04.06.2023 06:32 11,1 C 10,6 C 7,2 C 79 % 1021,1 hPa 0,0 l/m 0 min 0 min 21 W/m 0,0 km/h (0 Bft) 97,87 %
04.06.2023 06:34 11,1 C 10,6 C 7,2 C 79 % 1021,1 hPa 0,0 l/m 0 min 0 min 23 W/m 6,4 km/h (2 Bft) 97,83 %
04.06.2023 06:36 11,1 C 10,6 C 7,2 C 79 % 1021,1 hPa 0,0 l/m 0 min 0 min 23 W/m 0,0 km/h (0 Bft) 95,74 %
04.06.2023 06:38 11,1 C 10,6 C 7,2 C 79 % 1021,0 hPa 0,0 l/m 0 min 0 min 23 W/m 0,0 km/h (0 Bft) 97,87 %
04.06.2023 06:40 11,1 C 10,6 C 7,2 C 80 % 1021,1 hPa 0,0 l/m 0 min 0 min 24 W/m 0,0 km/h (0 Bft) 96,00 %
04.06.2023 06:42 11,2 C 10,6 C 7,2 C 80 % 1021,1 hPa 0,0 l/m 0 min 0 min 25 W/m 3,2 km/h (1 Bft) 97,87 %
04.06.2023 06:44 11,2 C 10,6 C 7,8 C 79 % 1021,1 hPa 0,0 l/m 0 min 0 min 25 W/m 0,0 km/h (0 Bft) 97,87 %
04.06.2023 06:46 11,2 C 10,6 C 7,8 C 79 % 1021,1 hPa 0,0 l/m 0 min 0 min 25 W/m 3,2 km/h (1 Bft) 97,87 %
04.06.2023 06:48 11,2 C 10,6 C 7,8 C 79 % 1021,2 hPa 0,0 l/m 0 min 0 min 26 W/m 3,2 km/h (1 Bft) 97,83 %
04.06.2023 06:50 11,2 C 10,6 C 7,8 C 79 % 1021,1 hPa 0,0 l/m 0 min 0 min 26 W/m 3,2 km/h (1 Bft) 97,87 %
04.06.2023 06:52 11,2 C 11,1 C 7,8 C 79 % 1021,2 hPa 0,0 l/m 0 min 0 min 26 W/m 3,2 km/h (1 Bft) 95,74 %
04.06.2023 06:54 11,2 C 11,1 C 7,8 C 80 % 1021,1 hPa 0,0 l/m 0 min 0 min 28 W/m 3,2 km/h (1 Bft) 97,87 %
04.06.2023 06:56 11,3 C 11,1 C 7,8 C 79 % 1021,1 hPa 0,0 l/m 0 min 0 min 28 W/m 3,2 km/h (1 Bft) 97,87 %
04.06.2023 06:58 11,3 C 11,1 C 7,8 C 80 % 1021,1 hPa 0,0 l/m 0 min 0 min 28 W/m 3,2 km/h (1 Bft) 100,00 %
04.06.2023 07:00 11,3 C 11,1 C 7,8 C 80 % 1021,1 hPa 0,0 l/m 0 min 0 min 30 W/m 6,4 km/h (2 Bft) 97,83 %
04.06.2023 07:02 11,3 C 11,1 C 7,8 C 80 % 1021,1 hPa 0,0 l/m 0 min 0 min 30 W/m 3,2 km/h (1 Bft) 100,00 %
04.06.2023 07:04 11,3 C 11,1 C 7,8 C 79 % 1021,0 hPa 0,0 l/m 0 min 0 min 30 W/m 3,2 km/h (1 Bft) 100,00 %
04.06.2023 07:06 11,4 C 11,1 C 7,8 C 79 % 1021,1 hPa 0,0 l/m 0 min 0 min 32 W/m 0,0 km/h (0 Bft) 100,00 %
04.06.2023 07:08 11,4 C 11,1 C 7,8 C 79 % 1021,1 hPa 0,0 l/m 0 min 0 min 32 W/m 3,2 km/h (1 Bft) 100,00 %
04.06.2023 07:10 11,4 C 11,1 C 7,8 C 80 % 1021,1 hPa 0,0 l/m 0 min 0 min 33 W/m 0,0 km/h (0 Bft) 100,00 %
04.06.2023 07:12 11,5 C 11,7 C 7,8 C 80 % 1021,1 hPa 0,0 l/m 0 min 0 min 33 W/m 9,7 km/h (2 Bft) 100,00 %
04.06.2023 07:14 11,6 C 11,7 C 8,3 C 79 % 1021,1 hPa 0,0 l/m 0 min 0 min 34 W/m 9,7 km/h (2 Bft) 100,00 %
04.06.2023 07:16 11,6 C 11,7 C 8,3 C 79 % 1021,1 hPa 0,0 l/m 0 min 0 min 35 W/m 3,2 km/h (1 Bft) 93,62 %
04.06.2023 07:18 11,7 C 11,7 C 8,3 C 78 % 1021,1 hPa 0,0 l/m 0 min 0 min 36 W/m 3,2 km/h (1 Bft) 97,87 %
04.06.2023 07:20 11,8 C 11,7 C 8,3 C 78 % 1021,1 hPa 0,0 l/m 0 min 0 min 37 W/m 9,7 km/h (2 Bft) 97,87 %
04.06.2023 07:22 11,8 C 11,7 C 8,3 C 78 % 1021,1 hPa 0,0 l/m 0 min 0 min 37 W/m 3,2 km/h (1 Bft) 95,74 %
04.06.2023 07:24 11,9 C 12,2 C 8,3 C 77 % 1021,1 hPa 0,0 l/m 0 min 0 min 39 W/m 6,4 km/h (2 Bft) 93,62 %
04.06.2023 07:26 12,0 C 12,2 C 8,9 C 77 % 1021,1 hPa 0,0 l/m 0 min 0 min 39 W/m 6,4 km/h (2 Bft) 97,83 %
04.06.2023 07:28 12,1 C 12,2 C 8,9 C 76 % 1021,2 hPa 0,0 l/m 0 min 0 min 40 W/m 9,7 km/h (2 Bft) 97,87 %
04.06.2023 07:30 12,2 C 12,2 C 8,9 C 76 % 1021,2 hPa 0,0 l/m 0 min 0 min 40 W/m 6,4 km/h (2 Bft) 95,74 %
04.06.2023 07:32 12,2 C 12,2 C 8,9 C 76 % 1021,2 hPa 0,0 l/m 0 min 0 min 40 W/m 6,4 km/h (2 Bft) 95,74 %
04.06.2023 07:34 12,3 C 12,2 C 8,9 C 76 % 1021,2 hPa 0,0 l/m 0 min 0 min 42 W/m 3,2 km/h (1 Bft) 97,87 %
04.06.2023 07:36 12,4 C 12,2 C 8,9 C 75 % 1021,2 hPa 0,0 l/m 0 min 0 min 42 W/m 12,9 km/h (3 Bft) 95,74 %
04.06.2023 07:38 12,5 C 12,8 C 8,9 C 75 % 1021,2 hPa 0,0 l/m 0 min 0 min 43 W/m 6,4 km/h (2 Bft) 97,87 %
04.06.2023 07:40 12,6 C 12,8 C 8,9 C 75 % 1021,2 hPa 0,0 l/m 0 min 0 min 90 W/m 6,4 km/h (2 Bft) 93,48 %
04.06.2023 07:42 12,7 C 12,8 C 8,9 C 74 % 1021,2 hPa 0,0 l/m 2 min 0 min 226 W/m 9,7 km/h (2 Bft) 95,74 %
04.06.2023 07:44 12,8 C 12,8 C 9,4 C 74 % 1021,2 hPa 0,0 l/m 2 min 0 min 269 W/m 6,4 km/h (2 Bft) 95,74 %
04.06.2023 07:46 12,9 C 12,8 C 9,4 C 74 % 1021,3 hPa 0,0 l/m 2 min 0 min 277 W/m 6,4 km/h (2 Bft) 97,87 %
04.06.2023 07:48 12,9 C 12,8 C 9,4 C 74 % 1021,3 hPa 0,0 l/m 2 min 0 min 204 W/m 9,7 km/h (2 Bft) 95,74 %
04.06.2023 07:50 13,1 C 13,3 C 9,4 C 73 % 1021,3 hPa 0,0 l/m 0 min 0 min 57 W/m 12,9 km/h (3 Bft) 97,87 %
04.06.2023 07:52 13,1 C 13,3 C 9,4 C 73 % 1021,3 hPa 0,0 l/m 0 min 0 min 65 W/m 6,4 km/h (2 Bft) 100,00 %
04.06.2023 07:54 13,2 C 13,3 C 9,4 C 73 % 1021,3 hPa 0,0 l/m 2 min 0 min 205 W/m 3,2 km/h (1 Bft) 97,87 %
04.06.2023 07:56 13,3 C 13,3 C 9,4 C 72 % 1021,2 hPa 0,0 l/m 2 min 0 min 305 W/m 9,7 km/h (2 Bft) 100,00 %
04.06.2023 07:58 13,4 C 13,9 C 9,4 C 72 % 1021,2 hPa 0,0 l/m 2 min 0 min 311 W/m 6,4 km/h (2 Bft) 97,87 %
04.06.2023 08:00 13,5 C 14,4 C 10,0 C 72 % 1021,3 hPa 0,0 l/m 2 min 0 min 317 W/m 6,4 km/h (2 Bft) 91,49 %
04.06.2023 08:02 13,6 C 15,6 C 10,0 C 71 % 1021,3 hPa 0,0 l/m 2 min 0 min 323 W/m 6,4 km/h (2 Bft) 93,62 %
04.06.2023 08:04 13,8 C 16,1 C 10,0 C 71 % 1021,3 hPa 0,0 l/m 2 min 0 min 326 W/m 6,4 km/h (2 Bft) 97,87 %
04.06.2023 08:06 13,9 C 16,7 C 10,0 C 70 % 1021,3 hPa 0,0 l/m 2 min 0 min 327 W/m 6,4 km/h (2 Bft) 95,65 %
04.06.2023 08:08 14,1 C 17,2 C 10,0 C 69 % 1021,3 hPa 0,0 l/m 2 min 0 min 291 W/m 6,4 km/h (2 Bft) 97,87 %
04.06.2023 08:10 14,3 C 17,8 C 10,0 C 69 % 1021,3 hPa 0,0 l/m 2 min 0 min 325 W/m 6,4 km/h (2 Bft) 95,74 %
04.06.2023 08:12 14,3 C 18,3 C 10,6 C 68 % 1021,3 hPa 0,0 l/m 2 min 0 min 352 W/m 6,4 km/h (2 Bft) 95,74 %
04.06.2023 08:14 14,5 C 18,3 C 10,6 C 68 % 1021,4 hPa 0,0 l/m 2 min 0 min 356 W/m 16,1 km/h (3 Bft) 95,74 %
04.06.2023 08:16 14,7 C 18,9 C 10,6 C 68 % 1021,4 hPa 0,0 l/m 2 min 0 min 362 W/m 9,7 km/h (2 Bft) 97,87 %
04.06.2023 08:18 14,8 C 18,9 C 11,1 C 67 % 1021,3 hPa 0,0 l/m 2 min 0 min 369 W/m 6,4 km/h (2 Bft) 95,74 %
04.06.2023 08:20 15,1 C 19,4 C 11,1 C 67 % 1021,4 hPa 0,0 l/m 2 min 0 min 373 W/m 9,7 km/h (2 Bft) 95,65 %
04.06.2023 08:22 15,3 C 19,4 C 11,7 C 66 % 1021,4 hPa 0,0 l/m 2 min 0 min 370 W/m 9,7 km/h (2 Bft) 97,87 %
04.06.2023 08:24 15,6 C 20,0 C 11,7 C 66 % 1021,4 hPa 0,0 l/m 2 min 0 min 385 W/m 9,7 km/h (2 Bft) 97,87 %
04.06.2023 08:26 15,8 C 20,6 C 11,7 C 65 % 1021,5 hPa 0,0 l/m 2 min 0 min 393 W/m 6,4 km/h (2 Bft) 97,87 %
04.06.2023 08:28 15,9 C 20,6 C 12,2 C 64 % 1021,4 hPa 0,0 l/m 2 min 0 min 398 W/m 12,9 km/h (3 Bft) 97,87 %
04.06.2023 08:30 16,0 C 20,6 C 12,8 C 63 % 1021,4 hPa 0,0 l/m 2 min 0 min 405 W/m 6,4 km/h (2 Bft) 97,87 %
04.06.2023 08:32 16,1 C 21,1 C 12,8 C 62 % 1021,4 hPa 0,0 l/m 2 min 0 min 410 W/m 9,7 km/h (2 Bft) 93,48 %
04.06.2023 08:34 16,3 C 21,1 C 13,3 C 62 % 1021,4 hPa 0,0 l/m 2 min 0 min 416 W/m 9,7 km/h (2 Bft) 95,74 %
04.06.2023 08:36 16,6 C 21,7 C 13,3 C 61 % 1021,5 hPa 0,0 l/m 2 min 0 min 421 W/m 12,9 km/h (3 Bft) 97,87 %
04.06.2023 08:38 16,8 C 22,2 C 13,9 C 61 % 1021,5 hPa 0,0 l/m 2 min 0 min 426 W/m 6,4 km/h (2 Bft) 97,87 %
04.06.2023 08:40 16,9 C 22,2 C 13,9 C 60 % 1021,5 hPa 0,0 l/m 2 min 0 min 432 W/m 12,9 km/h (3 Bft) 97,87 %
04.06.2023 08:42 17,1 C 22,2 C 14,4 C 60 % 1021,5 hPa 0,0 l/m 2 min 0 min 438 W/m 12,9 km/h (3 Bft) 95,74 %
04.06.2023 08:44 17,2 C 22,8 C 14,4 C 59 % 1021,6 hPa 0,0 l/m 2 min 0 min 444 W/m 9,7 km/h (2 Bft) 97,83 %
04.06.2023 08:46 17,4 C 22,8 C 14,4 C 59 % 1021,6 hPa 0,0 l/m 2 min 0 min 450 W/m 6,4 km/h (2 Bft) 97,87 %
04.06.2023 08:48 17,4 C 22,2 C 14,4 C 58 % 1021,5 hPa 0,0 l/m 2 min 0 min 455 W/m 9,7 km/h (2 Bft) 97,87 %
04.06.2023 08:50 17,6 C 22,2 C 14,4 C 58 % 1021,5 hPa 0,0 l/m 2 min 0 min 462 W/m 12,9 km/h (3 Bft) 97,87 %
04.06.2023 08:52 17,6 C 23,3 C 15,0 C 59 % 1021,6 hPa 0,0 l/m 2 min 0 min 466 W/m 9,7 km/h (2 Bft) 97,87 %
04.06.2023 08:54 17,7 C 23,3 C 15,0 C 58 % 1021,6 hPa 0,0 l/m 2 min 0 min 472 W/m 3,2 km/h (1 Bft) 95,74 %
04.06.2023 08:56 17,8 C 23,9 C 15,6 C 58 % 1021,6 hPa 0,0 l/m 2 min 0 min 476 W/m 6,4 km/h (2 Bft) 93,62 %
04.06.2023 08:58 18,0 C 24,4 C 15,6 C 58 % 1021,6 hPa 0,0 l/m 2 min 0 min 482 W/m 3,2 km/h (1 Bft) 95,65 %
04.06.2023 09:00 18,2 C 23,9 C 15,6 C 57 % 1021,6 hPa 0,0 l/m 2 min 0 min 489 W/m 16,1 km/h (3 Bft) 95,74 %
04.06.2023 09:02 18,3 C 24,4 C 15,6 C 56 % 1021,6 hPa 0,0 l/m 2 min 0 min 496 W/m 9,7 km/h (2 Bft) 93,62 %
04.06.2023 09:04 18,4 C 25,0 C 15,6 C 56 % 1021,6 hPa 0,0 l/m 2 min 0 min 500 W/m 12,9 km/h (3 Bft) 93,62 %
04.06.2023 09:06 18,6 C 24,4 C 16,1 C 55 % 1021,7 hPa 0,0 l/m 2 min 0 min 507 W/m 6,4 km/h (2 Bft) 96,08 %
04.06.2023 09:08 18,7 C 25,0 C 16,1 C 54 % 1021,6 hPa 0,0 l/m 2 min 0 min 513 W/m 6,4 km/h (2 Bft) 94,29 %
04.06.2023 09:10 18,8 C 25,0 C 16,1 C 53 % 1021,7 hPa 0,0 l/m 2 min 0 min 519 W/m 12,9 km/h (3 Bft) 95,74 %
04.06.2023 09:12 18,9 C 25,0 C 16,1 C 54 % 1021,6 hPa 0,0 l/m 2 min 0 min 524 W/m 6,4 km/h (2 Bft) 91,49 %
04.06.2023 09:14 19,0 C 25,6 C 16,7 C 54 % 1021,7 hPa 0,0 l/m 2 min 0 min 530 W/m 6,4 km/h (2 Bft) 95,65 %
04.06.2023 09:16 19,1 C 25,6 C 16,7 C 55 % 1021,6 hPa 0,0 l/m 2 min 0 min 534 W/m 9,7 km/h (2 Bft) 95,74 %
04.06.2023 09:18 19,2 C 25,0 C 16,7 C 54 % 1021,7 hPa 0,0 l/m 2 min 0 min 539 W/m 6,4 km/h (2 Bft) 93,62 %
04.06.2023 09:20 19,3 C 25,0 C 17,2 C 53 % 1021,7 hPa 0,0 l/m 2 min 0 min 545 W/m 9,7 km/h (2 Bft) 95,74 %
04.06.2023 09:22 19,5 C 25,0 C 17,2 C 52 % 1021,6 hPa 0,0 l/m 2 min 0 min 550 W/m 6,4 km/h (2 Bft) 95,74 %
04.06.2023 09:24 19,6 C 24,4 C 17,2 C 52 % 1021,6 hPa 0,0 l/m 2 min 0 min 557 W/m 16,1 km/h (3 Bft) 93,62 %
04.06.2023 09:26 19,6 C 23,9 C 17,2 C 52 % 1021,6 hPa 0,0 l/m 2 min 0 min 563 W/m 12,9 km/h (3 Bft) 95,65 %
04.06.2023 09:28 19,7 C 24,4 C 17,2 C 52 % 1021,6 hPa 0,0 l/m 2 min 0 min 567 W/m 12,9 km/h (3 Bft) 93,62 %
04.06.2023 09:30 19,7 C 23,9 C 17,2 C 51 % 1021,6 hPa 0,0 l/m 2 min 0 min 573 W/m 9,7 km/h (2 Bft) 91,49 %
04.06.2023 09:32 19,7 C 23,9 C 17,8 C 53 % 1021,6 hPa 0,0 l/m 2 min 0 min 578 W/m 6,4 km/h (2 Bft) 93,62 %
04.06.2023 09:34 19,7 C 24,4 C 17,8 C 53 % 1021,7 hPa 0,0 l/m 2 min 0 min 582 W/m 9,7 km/h (2 Bft) 93,62 %
04.06.2023 09:36 19,8 C 25,0 C 17,8 C 52 % 1021,7 hPa 0,0 l/m 2 min 0 min 589 W/m 6,4 km/h (2 Bft) 93,62 %
04.06.2023 09:38 19,9 C 25,0 C 18,3 C 52 % 1021,7 hPa 0,0 l/m 2 min 0 min 595 W/m 12,9 km/h (3 Bft) 91,49 %
04.06.2023 09:40 20,0 C 24,4 C 18,3 C 51 % 1021,6 hPa 0,0 l/m 2 min 0 min 600 W/m 16,1 km/h (3 Bft) 95,65 %
04.06.2023 09:42 20,1 C 25,0 C 18,3 C 51 % 1021,6 hPa 0,0 l/m 2 min 0 min 606 W/m 9,7 km/h (2 Bft) 95,74 %
04.06.2023 09:44 20,2 C 25,0 C 18,3 C 51 % 1021,6 hPa 0,0 l/m 2 min 0 min 612 W/m 6,4 km/h (2 Bft) 95,74 %
04.06.2023 09:46 20,3 C 25,6 C 18,9 C 51 % 1021,6 hPa 0,0 l/m 2 min 0 min 619 W/m 6,4 km/h (2 Bft) 91,49 %
04.06.2023 09:48 20,4 C 25,6 C 18,9 C 51 % 1021,6 hPa 0,0 l/m 2 min 0 min 622 W/m 9,7 km/h (2 Bft) 95,74 %
04.06.2023 09:50 20,6 C 25,0 C 18,9 C 50 % 1021,7 hPa 0,0 l/m 2 min 0 min 628 W/m 12,9 km/h (3 Bft) 95,74 %
04.06.2023 09:52 20,6 C 25,0 C 18,9 C 50 % 1021,6 hPa 0,0 l/m 2 min 0 min 633 W/m 9,7 km/h (2 Bft) 95,65 %
04.06.2023 09:54 20,7 C 25,6 C 18,9 C 50 % 1021,6 hPa 0,0 l/m 2 min 0 min 637 W/m 6,4 km/h (2 Bft) 95,74 %
04.06.2023 09:56 20,7 C 25,0 C 18,9 C 50 % 1021,7 hPa 0,0 l/m 2 min 0 min 641 W/m 9,7 km/h (2 Bft) 95,74 %
04.06.2023 09:58 20,7 C 24,4 C 19,4 C 48 % 1021,7 hPa 0,0 l/m 2 min 0 min 648 W/m 19,3 km/h (3 Bft) 97,87 %
04.06.2023 10:00 20,7 C 25,0 C 18,9 C 49 % 1021,7 hPa 0,0 l/m 2 min 0 min 653 W/m 9,7 km/h (2 Bft) 97,87 %
04.06.2023 10:02 20,7 C 25,0 C 19,4 C 48 % 1021,7 hPa 0,0 l/m 2 min 0 min 657 W/m 9,7 km/h (2 Bft) 97,87 %
04.06.2023 10:04 20,7 C 25,0 C 19,4 C 48 % 1021,7 hPa 0,0 l/m 2 min 0 min 662 W/m 9,7 km/h (2 Bft) 97,83 %
04.06.2023 10:06 20,8 C 25,6 C 20,0 C 49 % 1021,6 hPa 0,0 l/m 2 min 0 min 668 W/m 6,4 km/h (2 Bft) 94,92 %
04.06.2023 10:08 20,8 C 25,6 C 20,0 C 49 % 1021,6 hPa 0,0 l/m 2 min 0 min 674 W/m 9,7 km/h (2 Bft) 100,00 %
04.06.2023 10:10 20,9 C 26,1 C 20,0 C 49 % 1021,6 hPa 0,0 l/m 2 min 0 min 678 W/m 9,7 km/h (2 Bft) 100,00 %
04.06.2023 10:12 21,1 C 25,6 C 20,0 C 50 % 1021,6 hPa 0,0 l/m 2 min 0 min 682 W/m 9,7 km/h (2 Bft) 100,00 %
04.06.2023 10:14 21,1 C 25,6 C 20,6 C 49 % 1021,6 hPa 0,0 l/m 2 min 0 min 688 W/m 9,7 km/h (2 Bft) 100,00 %
04.06.2023 10:16 21,2 C 25,6 C 20,6 C 49 % 1021,6 hPa 0,0 l/m 2 min 0 min 692 W/m 12,9 km/h (3 Bft) 100,00 %
04.06.2023 10:18 21,2 C 24,4 C 20,6 C 48 % 1021,6 hPa 0,0 l/m 2 min 0 min 698 W/m 9,7 km/h (2 Bft) 100,00 %
04.06.2023 10:20 21,2 C 24,4 C 20,6 C 48 % 1021,7 hPa 0,0 l/m 2 min 0 min 702 W/m 12,9 km/h (3 Bft) 97,87 %
04.06.2023 10:22 21,3 C 24,4 C 20,6 C 48 % 1021,7 hPa 0,0 l/m 2 min 0 min 706 W/m 9,7 km/h (2 Bft) 100,00 %
04.06.2023 10:24 21,3 C 24,4 C 21,1 C 49 % 1021,7 hPa 0,0 l/m 2 min 0 min 711 W/m 9,7 km/h (2 Bft) 100,00 %
04.06.2023 10:26 21,4 C 24,4 C 21,1 C 48 % 1021,7 hPa 0,0 l/m 2 min 0 min 716 W/m 12,9 km/h (3 Bft) 97,87 %
04.06.2023 10:28 21,4 C 24,4 C 21,1 C 48 % 1021,7 hPa 0,0 l/m 2 min 0 min 720 W/m 9,7 km/h (2 Bft) 100,00 %
04.06.2023 10:30 21,5 C 23,9 C 21,1 C 48 % 1021,6 hPa 0,0 l/m 2 min 0 min 724 W/m 9,7 km/h (2 Bft) 100,00 %
04.06.2023 10:32 21,6 C 23,9 C 21,1 C 48 % 1021,7 hPa 0,0 l/m 2 min 0 min 728 W/m 6,4 km/h (2 Bft) 100,00 %
04.06.2023 10:34 21,7 C 23,9 C 21,1 C 49 % 1021,7 hPa 0,0 l/m 2 min 0 min 739 W/m 9,7 km/h (2 Bft) 97,87 %
04.06.2023 10:36 21,7 C 23,9 C 20,6 C 49 % 1021,7 hPa 0,0 l/m 2 min 0 min 737 W/m 6,4 km/h (2 Bft) 97,87 %
04.06.2023 10:38 21,8 C 23,9 C 20,6 C 49 % 1021,7 hPa 0,0 l/m 2 min 0 min 740 W/m 9,7 km/h (2 Bft) 100,00 %
04.06.2023 10:40 21,9 C 23,9 C 20,6 C 49 % 1021,7 hPa 0,0 l/m 2 min 0 min 746 W/m 6,4 km/h (2 Bft) 100,00 %
04.06.2023 10:42 21,9 C 23,3 C 21,1 C 49 % 1021,7 hPa 0,0 l/m 2 min 0 min 749 W/m 16,1 km/h (3 Bft) 100,00 %
04.06.2023 10:44 21,9 C 23,3 C 21,1 C 47 % 1021,7 hPa 0,0 l/m 2 min 0 min 754 W/m 12,9 km/h (3 Bft) 100,00 %
04.06.2023 10:46 21,9 C 23,3 C 20,6 C 47 % 1021,7 hPa 0,0 l/m 2 min 0 min 760 W/m 9,7 km/h (2 Bft) 100,00 %
04.06.2023 10:48 21,9 C 22,8 C 20,6 C 46 % 1021,7 hPa 0,0 l/m 2 min 0 min 764 W/m 12,9 km/h (3 Bft) 100,00 %
04.06.2023 10:50 21,9 C 23,3 C 20,6 C 47 % 1021,7 hPa 0,0 l/m 2 min 0 min 767 W/m 9,7 km/h (2 Bft) 97,87 %
04.06.2023 10:52 22,0 C 23,3 C 20,6 C 46 % 1021,7 hPa 0,0 l/m 2 min 0 min 769 W/m 9,7 km/h (2 Bft) 100,00 %
04.06.2023 10:54 22,1 C 23,9 C 20,0 C 49 % 1021,7 hPa 0,0 l/m 2 min 0 min 773 W/m 12,9 km/h (3 Bft) 100,00 %
04.06.2023 10:56 22,2 C 24,4 C 19,4 C 48 % 1021,8 hPa 0,0 l/m 2 min 0 min 776 W/m 9,7 km/h (2 Bft) 100,00 %
04.06.2023 10:58 22,2 C 24,4 C 19,4 C 47 % 1021,7 hPa 0,0 l/m 2 min 0 min 782 W/m 9,7 km/h (2 Bft) 100,00 %
04.06.2023 11:00 22,3 C 25,0 C 18,9 C 47 % 1021,7 hPa 0,0 l/m 2 min 0 min 785 W/m 16,1 km/h (3 Bft) 100,00 %
04.06.2023 11:02 22,3 C 25,0 C 18,9 C 46 % 1021,8 hPa 0,0 l/m 2 min 0 min 792 W/m 12,9 km/h (3 Bft) 100,00 %
04.06.2023 11:04 22,3 C 24,4 C 18,9 C 45 % 1021,7 hPa 0,0 l/m 2 min 0 min 794 W/m 12,9 km/h (3 Bft) 100,00 %
04.06.2023 11:06 22,3 C 25,0 C 18,9 C 45 % 1021,7 hPa 0,0 l/m 2 min 0 min 798 W/m 12,9 km/h (3 Bft) 100,00 %
04.06.2023 11:08 22,4 C 25,0 C 19,4 C 45 % 1021,7 hPa 0,0 l/m 2 min 0 min 803 W/m 9,7 km/h (2 Bft) 100,00 %
04.06.2023 11:10 22,4 C 25,6 C 20,0 C 45 % 1021,7 hPa 0,0 l/m 2 min 0 min 804 W/m 12,9 km/h (3 Bft) 100,00 %
04.06.2023 11:12 22,6 C 26,1 C 20,0 C 46 % 1021,7 hPa 0,0 l/m 2 min 0 min 807 W/m 12,9 km/h (3 Bft) 100,00 %
04.06.2023 11:14 22,7 C 26,1 C 19,4 C 45 % 1021,7 hPa 0,0 l/m 2 min 0 min 811 W/m 12,9 km/h (3 Bft) 95,74 %
04.06.2023 11:16 22,7 C 26,1 C 19,4 C 45 % 1021,7 hPa 0,0 l/m 2 min 0 min 812 W/m 9,7 km/h (2 Bft) 100,00 %
04.06.2023 11:18 22,8 C 26,1 C 20,0 C 44 % 1021,8 hPa 0,0 l/m 2 min 0 min 813 W/m 9,7 km/h (2 Bft) 100,00 %
04.06.2023 11:20 22,8 C 26,1 C 20,0 C 43 % 1021,8 hPa 0,0 l/m 2 min 0 min 817 W/m 16,1 km/h (3 Bft) 97,87 %
04.06.2023 11:22 22,7 C 25,6 C 20,0 C 43 % 1021,8 hPa 0,0 l/m 2 min 0 min 820 W/m 12,9 km/h (3 Bft) 100,00 %
04.06.2023 11:24 22,7 C 25,0 C 20,0 C 42 % 1021,8 hPa 0,0 l/m 2 min 0 min 825 W/m 12,9 km/h (3 Bft) 97,87 %
04.06.2023 11:26 22,5 C 24,4 C 20,0 C 43 % 1021,8 hPa 0,0 l/m 2 min 0 min 830 W/m 16,1 km/h (3 Bft) 97,87 %
04.06.2023 11:28 22,4 C 25,0 C 21,1 C 44 % 1021,8 hPa 0,0 l/m 2 min 0 min 833 W/m 12,9 km/h (3 Bft) 97,87 %
04.06.2023 11:30 22,5 C 25,6 C 21,7 C 45 % 1021,8 hPa 0,0 l/m 2 min 0 min 837 W/m 6,4 km/h (2 Bft) 95,74 %
04.06.2023 11:32 22,6 C 26,7 C 22,2 C 45 % 1021,8 hPa 0,0 l/m 2 min 0 min 841 W/m 9,7 km/h (2 Bft) 93,62 %
04.06.2023 11:34 22,7 C 26,7 C 22,2 C 45 % 1021,8 hPa 0,0 l/m 2 min 0 min 843 W/m 16,1 km/h (3 Bft) 95,65 %
04.06.2023 11:36 22,7 C 26,7 C 21,7 C 44 % 1021,7 hPa 0,0 l/m 2 min 0 min 846 W/m 9,7 km/h (2 Bft) 93,62 %
04.06.2023 11:38 22,7 C 26,1 C 22,2 C 44 % 1021,7 hPa 0,0 l/m 2 min 0 min 851 W/m 19,3 km/h (3 Bft) 95,74 %
04.06.2023 11:40 22,6 C 25,6 C 22,2 C 43 % 1021,8 hPa 0,0 l/m 2 min 0 min 855 W/m 6,4 km/h (2 Bft) 95,74 %
04.06.2023 11:42 22,6 C 25,6 C 23,3 C 43 % 1021,7 hPa 0,0 l/m 2 min 0 min 858 W/m 16,1 km/h (3 Bft) 97,87 %
04.06.2023 11:44 22,6 C 26,1 C 24,4 C 43 % 1021,7 hPa 0,0 l/m 2 min 0 min 860 W/m 6,4 km/h (2 Bft) 95,74 %
04.06.2023 11:46 22,7 C 26,1 C 24,4 C 44 % 1021,8 hPa 0,0 l/m 2 min 0 min 864 W/m 12,9 km/h (3 Bft) 95,74 %
04.06.2023 11:48 22,7 C 26,1 C 23,9 C 43 % 1021,7 hPa 0,0 l/m 2 min 0 min 868 W/m 16,1 km/h (3 Bft) 93,48 %
04.06.2023 11:50 22,8 C 26,1 C 23,3 C 44 % 1021,7 hPa 0,0 l/m 2 min 0 min 870 W/m 25,7 km/h (4 Bft) 93,62 %
04.06.2023 11:52 22,8 C 26,7 C 22,8 C 43 % 1021,7 hPa 0,0 l/m 2 min 0 min 873 W/m 9,7 km/h (2 Bft) 95,74 %
04.06.2023 11:54 22,9 C 27,2 C 22,2 C 44 % 1021,7 hPa 0,0 l/m 2 min 0 min 877 W/m 9,7 km/h (2 Bft) 95,74 %
04.06.2023 11:56 23,1 C 27,8 C 21,7 C 43 % 1021,7 hPa 0,0 l/m 2 min 0 min 881 W/m 9,7 km/h (2 Bft) 95,74 %
04.06.2023 11:58 23,2 C 28,3 C 21,7 C 43 % 1021,7 hPa 0,0 l/m 2 min 0 min 882 W/m 9,7 km/h (2 Bft) 95,74 %
04.06.2023 12:00 23,3 C 28,3 C 22,2 C 44 % 1021,7 hPa 0,0 l/m 2 min 0 min 882 W/m 16,1 km/h (3 Bft) 97,83 %
04.06.2023 12:02 23,4 C 28,3 C 22,2 C 43 % 1021,8 hPa 0,0 l/m 2 min 0 min 884 W/m 16,1 km/h (3 Bft) 95,74 %
04.06.2023 12:04 23,5 C 28,3 C 22,8 C 43 % 1021,8 hPa 0,0 l/m 2 min 0 min 887 W/m 16,1 km/h (3 Bft) 95,74 %
04.06.2023 12:08 23,6 C 28,3 C 22,2 C 42 % 1021,8 hPa 0,0 l/m 4 min 0 min 890 W/m 12,9 km/h (3 Bft) 94,85 %
04.06.2023 12:12 23,6 C 28,3 C 22,8 C 42 % 1021,8 hPa 0,0 l/m 4 min 0 min 893 W/m 12,9 km/h (3 Bft) 100,00 %
04.06.2023 12:14 23,6 C 28,3 C 22,8 C 41 % 1021,8 hPa 0,0 l/m 2 min 0 min 896 W/m 12,9 km/h (3 Bft) 97,87 %
04.06.2023 12:16 23,6 C 28,3 C 22,8 C 41 % 1021,8 hPa 0,0 l/m 2 min 0 min 897 W/m 9,7 km/h (2 Bft) 97,87 %
04.06.2023 12:18 23,7 C 28,3 C 23,3 C 43 % 1021,8 hPa 0,0 l/m 2 min 0 min 899 W/m 12,9 km/h (3 Bft) 100,00 %
04.06.2023 12:20 23,7 C 28,3 C 24,4 C 42 % 1021,8 hPa 0,0 l/m 2 min 0 min 903 W/m 12,9 km/h (3 Bft) 100,00 %
04.06.2023 12:22 23,7 C 28,3 C 24,4 C 41 % 1021,8 hPa 0,0 l/m 2 min 0 min 905 W/m 9,7 km/h (2 Bft) 100,00 %
04.06.2023 12:24 23,8 C 28,9 C 25,6 C 43 % 1021,7 hPa 0,0 l/m 2 min 0 min 906 W/m 6,4 km/h (2 Bft) 97,87 %
04.06.2023 12:26 23,8 C 28,3 C 26,1 C 43 % 1021,7 hPa 0,0 l/m 2 min 0 min 907 W/m 9,7 km/h (2 Bft) 97,87 %
04.06.2023 12:28 23,8 C 27,8 C 26,7 C 41 % 1021,7 hPa 0,0 l/m 2 min 0 min 906 W/m 16,1 km/h (3 Bft) 97,87 %
04.06.2023 12:30 23,8 C 28,3 C 26,1 C 43 % 1021,7 hPa 0,0 l/m 2 min 0 min 907 W/m 16,1 km/h (3 Bft) 97,87 %
04.06.2023 12:32 23,9 C 27,8 C 25,6 C 42 % 1021,7 hPa 0,0 l/m 2 min 0 min 909 W/m 16,1 km/h (3 Bft) 100,00 %
04.06.2023 12:34 23,8 C 27,8 C 25,0 C 42 % 1021,7 hPa 0,0 l/m 2 min 0 min 913 W/m 19,3 km/h (3 Bft) 100,00 %
04.06.2023 12:36 23,8 C 27,8 C 26,1 C 41 % 1021,6 hPa 0,0 l/m 2 min 0 min 916 W/m 9,7 km/h (2 Bft) 97,87 %
04.06.2023 12:38 23,8 C 27,8 C 26,7 C 42 % 1021,6 hPa 0,0 l/m 2 min 0 min 916 W/m 6,4 km/h (2 Bft) 97,87 %
04.06.2023 12:40 23,9 C 28,3 C 26,7 C 41 % 1021,6 hPa 0,0 l/m 2 min 0 min 919 W/m 12,9 km/h (3 Bft) 100,00 %
04.06.2023 12:42 24,0 C 28,9 C 27,2 C 41 % 1021,6 hPa 0,0 l/m 2 min 0 min 922 W/m 12,9 km/h (3 Bft) 97,87 %
04.06.2023 12:44 24,1 C 28,9 C 27,2 C 42 % 1021,6 hPa 0,0 l/m 2 min 0 min 921 W/m 9,7 km/h (2 Bft) 97,83 %
04.06.2023 12:46 24,1 C 28,3 C 27,2 C 41 % 1021,6 hPa 0,0 l/m 2 min 0 min 921 W/m 16,1 km/h (3 Bft) 100,00 %
04.06.2023 12:48 23,9 C 27,8 C 26,7 C 41 % 1021,6 hPa 0,0 l/m 2 min 0 min 922 W/m 16,1 km/h (3 Bft) 95,74 %
04.06.2023 12:50 24,0 C 28,3 C 27,2 C 42 % 1021,6 hPa 0,0 l/m 2 min 0 min 925 W/m 9,7 km/h (2 Bft) 100,00 %
04.06.2023 12:52 24,0 C 28,9 C 26,1 C 40 % 1021,6 hPa 0,0 l/m 2 min 0 min 922 W/m 9,7 km/h (2 Bft) 100,00 %
04.06.2023 12:54 24,1 C 28,9 C 26,1 C 41 % 1021,6 hPa 0,0 l/m 2 min 0 min 924 W/m 12,9 km/h (3 Bft) 97,87 %
04.06.2023 12:56 24,1 C 28,9 C 26,1 C 41 % 1021,6 hPa 0,0 l/m 2 min 0 min 926 W/m 19,3 km/h (3 Bft) 97,87 %
04.06.2023 12:58 24,1 C 28,9 C 26,1 C 40 % 1021,6 hPa 0,0 l/m 2 min 0 min 927 W/m 12,9 km/h (3 Bft) 100,00 %
04.06.2023 13:00 24,1 C 28,9 C 27,8 C 41 % 1021,6 hPa 0,0 l/m 2 min 0 min 925 W/m 16,1 km/h (3 Bft) 97,87 %
04.06.2023 13:02 24,1 C 28,9 C 26,7 C 40 % 1021,7 hPa 0,0 l/m 2 min 0 min 924 W/m 16,1 km/h (3 Bft) 97,87 %
04.06.2023 13:04 24,2 C 29,4 C 27,2 C 41 % 1021,6 hPa 0,0 l/m 2 min 0 min 928 W/m 9,7 km/h (2 Bft) 100,00 %
04.06.2023 13:06 24,3 C 30,0 C 26,7 C 41 % 1021,6 hPa 0,0 l/m 2 min 0 min 929 W/m 9,7 km/h (2 Bft) 93,85 %
04.06.2023 13:08 24,4 C 30,0 C 26,7 C 41 % 1021,6 hPa 0,0 l/m 2 min 0 min 932 W/m 12,9 km/h (3 Bft) 100,00 %
04.06.2023 13:10 24,4 C 30,6 C 26,1 C 41 % 1021,6 hPa 0,0 l/m 2 min 0 min 934 W/m 12,9 km/h (3 Bft) 95,74 %
04.06.2023 13:12 24,5 C 30,0 C 26,7 C 39 % 1021,6 hPa 0,0 l/m 2 min 0 min 933 W/m 9,7 km/h (2 Bft) 97,83 %
04.06.2023 13:14 24,5 C 29,4 C 27,2 C 39 % 1021,6 hPa 0,0 l/m 2 min 0 min 935 W/m 9,7 km/h (2 Bft) 97,87 %
04.06.2023 13:16 24,6 C 30,0 C 26,1 C 39 % 1021,6 hPa 0,0 l/m 2 min 0 min 934 W/m 9,7 km/h (2 Bft) 93,62 %
04.06.2023 13:18 24,5 C 29,4 C 27,8 C 38 % 1021,6 hPa 0,0 l/m 2 min 0 min 936 W/m 12,9 km/h (3 Bft) 93,62 %
04.06.2023 13:20 24,5 C 30,0 C 27,8 C 39 % 1021,5 hPa 0,0 l/m 2 min 0 min 935 W/m 9,7 km/h (2 Bft) 97,87 %
04.06.2023 13:22 24,6 C 30,6 C 28,9 C 39 % 1021,4 hPa 0,0 l/m 2 min 0 min 935 W/m 6,4 km/h (2 Bft) 95,74 %
04.06.2023 13:24 24,7 C 30,0 C 28,3 C 39 % 1021,5 hPa 0,0 l/m 2 min 0 min 933 W/m 12,9 km/h (3 Bft) 93,62 %
04.06.2023 13:26 24,7 C 30,6 C 27,8 C 40 % 1021,5 hPa 0,0 l/m 2 min 0 min 934 W/m 12,9 km/h (3 Bft) 97,83 %
04.06.2023 13:28 24,7 C 30,6 C 26,1 C 39 % 1021,5 hPa 0,0 l/m 2 min 0 min 935 W/m 9,7 km/h (2 Bft) 93,62 %
04.06.2023 13:30 24,8 C 31,1 C 26,7 C 40 % 1021,5 hPa 0,0 l/m 2 min 0 min 939 W/m 9,7 km/h (2 Bft) 95,74 %
04.06.2023 13:32 24,8 C 31,1 C 26,7 C 40 % 1021,5 hPa 0,0 l/m 2 min 0 min 934 W/m 19,3 km/h (3 Bft) 93,62 %
04.06.2023 13:34 24,9 C 31,1 C 27,2 C 39 % 1021,4 hPa 0,0 l/m 2 min 0 min 935 W/m 9,7 km/h (2 Bft) 93,62 %
04.06.2023 13:36 25,0 C 31,7 C 26,7 C 39 % 1021,4 hPa 0,0 l/m 2 min 0 min 939 W/m 16,1 km/h (3 Bft) 95,74 %
04.06.2023 13:38 25,1 C 31,7 C 26,7 C 37 % 1021,4 hPa 0,0 l/m 2 min 0 min 936 W/m 9,7 km/h (2 Bft) 95,65 %
04.06.2023 13:40 25,1 C 32,2 C 27,2 C 38 % 1021,4 hPa 0,0 l/m 2 min 0 min 937 W/m 6,4 km/h (2 Bft) 97,87 %
04.06.2023 13:42 25,1 C 32,2 C 27,2 C 38 % 1021,4 hPa 0,0 l/m 2 min 0 min 933 W/m 9,7 km/h (2 Bft) 95,74 %
04.06.2023 13:44 25,1 C 32,2 C 26,1 C 37 % 1021,4 hPa 0,0 l/m 2 min 0 min 931 W/m 9,7 km/h (2 Bft) 95,74 %
04.06.2023 13:46 25,1 C 31,7 C 26,7 C 37 % 1021,4 hPa 0,0 l/m 2 min 0 min 932 W/m 9,7 km/h (2 Bft) 95,74 %
04.06.2023 13:48 25,1 C 31,7 C 27,2 C 38 % 1021,3 hPa 0,0 l/m 2 min 0 min 932 W/m 6,4 km/h (2 Bft) 93,62 %
04.06.2023 13:50 25,1 C 31,1 C 26,7 C 38 % 1021,3 hPa 0,0 l/m 2 min 0 min 932 W/m 12,9 km/h (3 Bft) 95,74 %
04.06.2023 13:52 25,1 C 31,7 C 25,0 C 38 % 1021,3 hPa 0,0 l/m 2 min 0 min 932 W/m 9,7 km/h (2 Bft) 95,65 %
04.06.2023 13:54 25,1 C 31,7 C 23,9 C 38 % 1021,4 hPa 0,0 l/m 2 min 0 min 932 W/m 12,9 km/h (3 Bft) 93,62 %
04.06.2023 13:56 25,1 C 31,1 C 23,3 C 36 % 1021,3 hPa 0,0 l/m 2 min 0 min 931 W/m 9,7 km/h (2 Bft) 91,49 %
04.06.2023 13:58 25,2 C 31,1 C 22,8 C 37 % 1021,4 hPa 0,0 l/m 2 min 0 min 933 W/m 12,9 km/h (3 Bft) 93,62 %
04.06.2023 14:00 25,2 C 31,1 C 22,2 C 36 % 1021,3 hPa 0,0 l/m 2 min 0 min 934 W/m 16,1 km/h (3 Bft) 91,49 %
04.06.2023 14:02 25,2 C 31,7 C 21,7 C 36 % 1021,3 hPa 0,0 l/m 2 min 0 min 931 W/m 9,7 km/h (2 Bft) 93,62 %
04.06.2023 14:04 25,2 C 31,7 C 21,7 C 36 % 1021,3 hPa 0,0 l/m 2 min 0 min 930 W/m 9,7 km/h (2 Bft) 97,56 %
04.06.2023 14:06 25,2 C 31,7 C 21,7 C 37 % 1021,2 hPa 0,0 l/m 2 min 0 min 931 W/m 16,1 km/h (3 Bft) 96,92 %
04.06.2023 14:08 25,2 C 31,7 C 21,7 C 37 % 1021,2 hPa 0,0 l/m 2 min 0 min 929 W/m 12,9 km/h (3 Bft) 97,14 %
04.06.2023 14:10 25,3 C 32,2 C 21,7 C 37 % 1021,3 hPa 0,0 l/m 2 min 0 min 932 W/m 16,1 km/h (3 Bft) 97,87 %
04.06.2023 14:12 25,4 C 31,7 C 21,1 C 37 % 1021,3 hPa 0,0 l/m 2 min 0 min 926 W/m 6,4 km/h (2 Bft) 97,87 %
04.06.2023 14:14 25,4 C 31,7 C 21,1 C 38 % 1021,3 hPa 0,0 l/m 2 min 0 min 921 W/m 16,1 km/h (3 Bft) 95,74 %
04.06.2023 14:16 25,5 C 31,1 C 21,1 C 37 % 1021,3 hPa 0,0 l/m 2 min 0 min 921 W/m 9,7 km/h (2 Bft) 97,83 %
04.06.2023 14:18 25,5 C 31,7 C 20,6 C 37 % 1021,3 hPa 0,0 l/m 2 min 0 min 928 W/m 9,7 km/h (2 Bft) 97,87 %
04.06.2023 14:20 25,4 C 32,2 C 20,6 C 37 % 1021,3 hPa 0,0 l/m 2 min 0 min 923 W/m 9,7 km/h (2 Bft) 100,00 %
04.06.2023 14:22 25,4 C 31,1 C 20,6 C 37 % 1021,3 hPa 0,0 l/m 2 min 0 min 921 W/m 12,9 km/h (3 Bft) 97,87 %
04.06.2023 14:24 25,3 C 31,1 C 20,6 C 37 % 1021,1 hPa 0,0 l/m 2 min 0 min 921 W/m 9,7 km/h (2 Bft) 95,74 %
04.06.2023 14:26 25,4 C 30,6 C 20,6 C 36 % 1021,2 hPa 0,0 l/m 2 min 0 min 917 W/m 6,4 km/h (2 Bft) 97,87 %
04.06.2023 14:28 25,2 C 30,6 C 20,6 C 36 % 1021,2 hPa 0,0 l/m 2 min 0 min 917 W/m 12,9 km/h (3 Bft) 97,87 %
04.06.2023 14:30 25,2 C 30,6 C 20,6 C 37 % 1021,2 hPa 0,0 l/m 2 min 0 min 913 W/m 9,7 km/h (2 Bft) 97,83 %
04.06.2023 14:32 25,2 C 31,1 C 20,6 C 38 % 1021,2 hPa 0,0 l/m 2 min 0 min 911 W/m 16,1 km/h (3 Bft) 95,74 %
04.06.2023 14:34 25,3 C 31,1 C 20,6 C 37 % 1021,2 hPa 0,0 l/m 2 min 0 min 914 W/m 9,7 km/h (2 Bft) 97,87 %
04.06.2023 14:36 25,3 C 31,7 C 20,6 C 37 % 1021,2 hPa 0,0 l/m 2 min 0 min 913 W/m 6,4 km/h (2 Bft) 97,87 %
04.06.2023 14:38 25,5 C 32,2 C 20,6 C 38 % 1021,2 hPa 0,0 l/m 2 min 0 min 908 W/m 16,1 km/h (3 Bft) 97,87 %
04.06.2023 14:40 25,6 C 32,2 C 21,1 C 35 % 1021,1 hPa 0,0 l/m 2 min 0 min 906 W/m 19,3 km/h (3 Bft) 100,00 %
04.06.2023 14:42 25,7 C 32,2 C 21,1 C 36 % 1021,2 hPa 0,0 l/m 2 min 0 min 909 W/m 12,9 km/h (3 Bft) 100,00 %
04.06.2023 14:44 25,7 C 31,7 C 21,1 C 34 % 1021,1 hPa 0,0 l/m 2 min 0 min 910 W/m 16,1 km/h (3 Bft) 100,00 %
04.06.2023 14:46 25,7 C 31,7 C 21,1 C 36 % 1021,1 hPa 0,0 l/m 2 min 0 min 907 W/m 16,1 km/h (3 Bft) 100,00 %
04.06.2023 14:48 25,7 C 31,7 C 20,6 C 36 % 1021,1 hPa 0,0 l/m 2 min 0 min 905 W/m 16,1 km/h (3 Bft) 100,00 %
04.06.2023 14:50 25,7 C 31,1 C 20,6 C 36 % 1021,1 hPa 0,0 l/m 2 min 0 min 904 W/m 12,9 km/h (3 Bft) 100,00 %
04.06.2023 14:52 25,6 C 31,7 C 20,6 C 36 % 1021,1 hPa 0,0 l/m 2 min 0 min 902 W/m 12,9 km/h (3 Bft) 100,00 %
04.06.2023 14:54 25,6 C 31,1 C 20,6 C 36 % 1021,1 hPa 0,0 l/m 2 min 0 min 901 W/m 9,7 km/h (2 Bft) 100,00 %
04.06.2023 14:56 25,5 C 31,1 C 20,6 C 35 % 1021,0 hPa 0,0 l/m 2 min 0 min 896 W/m 16,1 km/h (3 Bft) 100,00 %
04.06.2023 14:58 25,5 C 31,7 C 20,6 C 36 % 1021,0 hPa 0,0 l/m 2 min 0 min 892 W/m 9,7 km/h (2 Bft) 97,87 %
04.06.2023 15:00 25,6 C 31,7 C 20,6 C 37 % 1021,0 hPa 0,0 l/m 2 min 0 min 889 W/m 19,3 km/h (3 Bft) 100,00 %
04.06.2023 15:02 25,6 C 31,7 C 20,6 C 37 % 1021,1 hPa 0,0 l/m 2 min 0 min 888 W/m 16,1 km/h (3 Bft) 100,00 %
04.06.2023 15:04 25,7 C 31,1 C 20,6 C 35 % 1021,0 hPa 0,0 l/m 2 min 0 min 885 W/m 9,7 km/h (2 Bft) 100,00 %
04.06.2023 15:06 25,8 C 32,2 C 21,1 C 36 % 1021,0 hPa 0,0 l/m 2 min 0 min 882 W/m 16,1 km/h (3 Bft) 100,00 %
04.06.2023 15:08 25,9 C 31,7 C 21,1 C 35 % 1021,0 hPa 0,0 l/m 2 min 0 min 879 W/m 12,9 km/h (3 Bft) 100,00 %
04.06.2023 15:10 25,9 C 32,2 C 21,1 C 34 % 1021,1 hPa 0,0 l/m 2 min 0 min 876 W/m 19,3 km/h (3 Bft) 100,00 %
04.06.2023 15:12 26,0 C 32,2 C 21,1 C 35 % 1021,1 hPa 0,0 l/m 2 min 0 min 878 W/m 12,9 km/h (3 Bft) 100,00 %
04.06.2023 15:14 25,9 C 32,2 C 21,1 C 35 % 1021,1 hPa 0,0 l/m 2 min 0 min 874 W/m 12,9 km/h (3 Bft) 100,00 %
04.06.2023 15:16 25,8 C 32,8 C 20,6 C 35 % 1021,0 hPa 0,0 l/m 2 min 0 min 872 W/m 12,9 km/h (3 Bft) 100,00 %
04.06.2023 15:18 25,8 C 32,2 C 20,6 C 37 % 1021,0 hPa 0,0 l/m 2 min 0 min 869 W/m 9,7 km/h (2 Bft) 100,00 %
04.06.2023 15:20 25,9 C 32,8 C 20,6 C 36 % 1021,0 hPa 0,0 l/m 2 min 0 min 867 W/m 6,4 km/h (2 Bft) 100,00 %
04.06.2023 15:22 25,9 C 32,8 C 20,6 C 35 % 1020,9 hPa 0,0 l/m 2 min 0 min 862 W/m 12,9 km/h (3 Bft) 97,83 %
04.06.2023 15:24 25,9 C 32,2 C 20,6 C 35 % 1021,0 hPa 0,0 l/m 2 min 0 min 863 W/m 12,9 km/h (3 Bft) 100,00 %
04.06.2023 15:26 25,9 C 32,2 C 20,6 C 35 % 1021,0 hPa 0,0 l/m 2 min 0 min 856 W/m 9,7 km/h (2 Bft) 97,87 %
04.06.2023 15:28 25,9 C 31,7 C 21,1 C 35 % 1021,1 hPa 0,0 l/m 2 min 0 min 853 W/m 12,9 km/h (3 Bft) 97,87 %
04.06.2023 15:30 25,9 C 31,7 C 21,1 C 35 % 1021,0 hPa 0,0 l/m 2 min 0 min 855 W/m 9,7 km/h (2 Bft) 100,00 %
04.06.2023 15:32 26,0 C 31,7 C 21,1 C 35 % 1021,0 hPa 0,0 l/m 2 min 0 min 850 W/m 9,7 km/h (2 Bft) 100,00 %
04.06.2023 15:34 26,1 C 31,7 C 21,1 C 35 % 1021,0 hPa 0,0 l/m 2 min 0 min 844 W/m 9,7 km/h (2 Bft) 97,83 %
04.06.2023 15:36 26,1 C 31,1 C 21,1 C 36 % 1021,0 hPa 0,0 l/m 2 min 0 min 843 W/m 9,7 km/h (2 Bft) 97,87 %
04.06.2023 15:38 26,1 C 30,0 C 21,1 C 34 % 1021,0 hPa 0,0 l/m 2 min 0 min 841 W/m 12,9 km/h (3 Bft) 95,74 %
04.06.2023 15:40 26,0 C 30,0 C 20,6 C 34 % 1021,0 hPa 0,0 l/m 2 min 0 min 840 W/m 12,9 km/h (3 Bft) 97,87 %
04.06.2023 15:42 26,0 C 30,0 C 20,6 C 34 % 1021,0 hPa 0,0 l/m 2 min 0 min 839 W/m 9,7 km/h (2 Bft) 97,87 %
04.06.2023 15:44 26,0 C 30,6 C 20,6 C 33 % 1020,9 hPa 0,0 l/m 2 min 0 min 835 W/m 16,1 km/h (3 Bft) 97,87 %
04.06.2023 15:46 25,9 C 30,6 C 20,6 C 35 % 1021,0 hPa 0,0 l/m 2 min 0 min 826 W/m 12,9 km/h (3 Bft) 97,87 %
04.06.2023 15:48 25,9 C 30,0 C 20,6 C 35 % 1020,9 hPa 0,0 l/m 2 min 0 min 823 W/m 16,1 km/h (3 Bft) 97,83 %
04.06.2023 15:50 25,7 C 29,4 C 20,6 C 35 % 1021,0 hPa 0,0 l/m 2 min 0 min 817 W/m 19,3 km/h (3 Bft) 97,87 %
04.06.2023 15:52 25,7 C 30,0 C 20,6 C 35 % 1020,9 hPa 0,0 l/m 2 min 0 min 811 W/m 9,7 km/h (2 Bft) 97,87 %
04.06.2023 15:54 25,6 C 29,4 C 20,6 C 35 % 1020,9 hPa 0,0 l/m 2 min 0 min 808 W/m 16,1 km/h (3 Bft) 97,87 %
04.06.2023 15:56 25,6 C 30,0 C 20,6 C 37 % 1020,9 hPa 0,0 l/m 2 min 0 min 804 W/m 6,4 km/h (2 Bft) 97,87 %
04.06.2023 15:58 25,6 C 30,0 C 20,6 C 36 % 1020,8 hPa 0,0 l/m 2 min 0 min 804 W/m 12,9 km/h (3 Bft) 97,87 %
04.06.2023 16:00 25,7 C 30,0 C 20,6 C 35 % 1020,8 hPa 0,0 l/m 2 min 0 min 803 W/m 6,4 km/h (2 Bft) 95,65 %
04.06.2023 16:02 25,7 C 30,0 C 20,6 C 37 % 1020,8 hPa 0,0 l/m 2 min 0 min 796 W/m 16,1 km/h (3 Bft) 93,62 %
04.06.2023 16:04 25,8 C 30,6 C 20,6 C 37 % 1020,8 hPa 0,0 l/m 2 min 0 min 789 W/m 9,7 km/h (2 Bft) 97,87 %
04.06.2023 16:06 25,8 C 30,6 C 21,1 C 35 % 1020,7 hPa 0,0 l/m 2 min 0 min 780 W/m 9,7 km/h (2 Bft) 100,00 %
04.06.2023 16:08 25,8 C 30,6 C 20,6 C 35 % 1020,7 hPa 0,0 l/m 2 min 0 min 778 W/m 19,3 km/h (3 Bft) 100,00 %
04.06.2023 16:10 25,7 C 29,4 C 20,6 C 34 % 1020,7 hPa 0,0 l/m 2 min 0 min 777 W/m 16,1 km/h (3 Bft) 97,87 %
04.06.2023 16:12 25,7 C 30,0 C 20,6 C 35 % 1020,7 hPa 0,0 l/m 2 min 0 min 770 W/m 9,7 km/h (2 Bft) 97,87 %
04.06.2023 16:14 25,7 C 30,0 C 20,6 C 35 % 1020,7 hPa 0,0 l/m 2 min 0 min 764 W/m 9,7 km/h (2 Bft) 100,00 %
04.06.2023 16:16 25,7 C 30,6 C 21,1 C 35 % 1020,8 hPa 0,0 l/m 2 min 0 min 766 W/m 9,7 km/h (2 Bft) 97,87 %
04.06.2023 16:18 25,8 C 30,6 C 21,1 C 35 % 1020,7 hPa 0,0 l/m 2 min 0 min 764 W/m 9,7 km/h (2 Bft) 95,74 %
04.06.2023 16:20 25,8 C 30,6 C 21,1 C 36 % 1020,7 hPa 0,0 l/m 2 min 0 min 760 W/m 9,7 km/h (2 Bft) 97,87 %
04.06.2023 16:22 25,8 C 31,1 C 21,1 C 37 % 1020,7 hPa 0,0 l/m 2 min 0 min 754 W/m 6,4 km/h (2 Bft) 97,87 %
04.06.2023 16:24 25,9 C 30,6 C 21,1 C 35 % 1020,6 hPa 0,0 l/m 2 min 0 min 751 W/m 9,7 km/h (2 Bft) 93,62 %
04.06.2023 16:26 25,9 C 31,1 C 21,1 C 37 % 1020,7 hPa 0,0 l/m 2 min 0 min 747 W/m 12,9 km/h (3 Bft) 93,62 %
04.06.2023 16:28 25,9 C 30,6 C 21,1 C 35 % 1020,7 hPa 0,0 l/m 2 min 0 min 742 W/m 16,1 km/h (3 Bft) 95,65 %
04.06.2023 16:30 25,9 C 30,6 C 21,1 C 35 % 1020,7 hPa 0,0 l/m 2 min 0 min 739 W/m 12,9 km/h (3 Bft) 91,49 %
04.06.2023 16:32 25,9 C 30,0 C 21,1 C 34 % 1020,6 hPa 0,0 l/m 2 min 0 min 735 W/m 16,1 km/h (3 Bft) 95,74 %
04.06.2023 16:34 25,8 C 29,4 C 21,1 C 35 % 1020,7 hPa 0,0 l/m 2 min 0 min 728 W/m 12,9 km/h (3 Bft) 95,74 %
04.06.2023 16:36 25,8 C 29,4 C 21,1 C 35 % 1020,7 hPa 0,0 l/m 2 min 0 min 726 W/m 12,9 km/h (3 Bft) 93,62 %
04.06.2023 16:38 25,8 C 30,0 C 21,1 C 34 % 1020,7 hPa 0,0 l/m 2 min 0 min 721 W/m 9,7 km/h (2 Bft) 93,62 %
04.06.2023 16:40 25,8 C 30,6 C 21,1 C 36 % 1020,6 hPa 0,0 l/m 2 min 0 min 717 W/m 6,4 km/h (2 Bft) 93,48 %
04.06.2023 16:42 25,8 C 30,0 C 21,1 C 35 % 1020,6 hPa 0,0 l/m 2 min 0 min 709 W/m 12,9 km/h (3 Bft) 100,00 %
04.06.2023 16:44 25,9 C 30,6 C 21,7 C 36 % 1020,5 hPa 0,0 l/m 2 min 0 min 707 W/m 9,7 km/h (2 Bft) 93,75 %
04.06.2023 16:46 26,1 C 31,1 C 21,7 C 37 % 1020,5 hPa 0,0 l/m 2 min 0 min 701 W/m 9,7 km/h (2 Bft) 95,74 %
04.06.2023 16:48 26,1 C 31,1 C 21,7 C 36 % 1020,5 hPa 0,0 l/m 2 min 0 min 693 W/m 9,7 km/h (2 Bft) 96,30 %
04.06.2023 16:50 26,1 C 30,0 C 21,7 C 36 % 1020,6 hPa 0,0 l/m 2 min 0 min 684 W/m 16,1 km/h (3 Bft) 92,11 %
04.06.2023 16:52 26,0 C 29,4 C 21,1 C 36 % 1020,5 hPa 0,0 l/m 2 min 0 min 680 W/m 12,9 km/h (3 Bft) 95,74 %
04.06.2023 16:54 25,9 C 29,4 C 21,1 C 35 % 1020,6 hPa 0,0 l/m 2 min 0 min 678 W/m 12,9 km/h (3 Bft) 95,74 %
04.06.2023 16:56 25,8 C 29,4 C 20,6 C 35 % 1020,5 hPa 0,0 l/m 2 min 0 min 675 W/m 12,9 km/h (3 Bft) 95,65 %
04.06.2023 16:58 25,8 C 29,4 C 21,1 C 36 % 1020,4 hPa 0,0 l/m 2 min 0 min 670 W/m 9,7 km/h (2 Bft) 95,74 %
04.06.2023 17:00 25,7 C 28,9 C 21,1 C 35 % 1020,4 hPa 0,0 l/m 2 min 0 min 663 W/m 16,1 km/h (3 Bft) 93,88 %
04.06.2023 17:02 25,7 C 29,4 C 21,1 C 36 % 1020,4 hPa 0,0 l/m 2 min 0 min 656 W/m 19,3 km/h (3 Bft) 97,87 %
04.06.2023 17:04 25,6 C 29,4 C 21,1 C 35 % 1020,4 hPa 0,0 l/m 2 min 0 min 652 W/m 12,9 km/h (3 Bft) 95,83 %
04.06.2023 17:06 25,7 C 29,4 C 21,7 C 35 % 1020,4 hPa 0,0 l/m 2 min 0 min 647 W/m 9,7 km/h (2 Bft) 96,61 %
04.06.2023 17:08 25,6 C 29,4 C 21,1 C 35 % 1020,4 hPa 0,0 l/m 2 min 0 min 642 W/m 16,1 km/h (3 Bft) 100,00 %
04.06.2023 17:10 25,6 C 29,4 C 21,7 C 35 % 1020,4 hPa 0,0 l/m 2 min 0 min 638 W/m 12,9 km/h (3 Bft) 97,87 %
04.06.2023 17:12 25,7 C 30,0 C 21,7 C 36 % 1020,3 hPa 0,0 l/m 2 min 0 min 634 W/m 6,4 km/h (2 Bft) 100,00 %
04.06.2023 17:14 25,8 C 30,6 C 22,2 C 36 % 1020,3 hPa 0,0 l/m 2 min 0 min 627 W/m 12,9 km/h (3 Bft) 100,00 %
04.06.2023 17:16 25,8 C 30,6 C 22,2 C 36 % 1020,3 hPa 0,0 l/m 2 min 0 min 622 W/m 16,1 km/h (3 Bft) 100,00 %
04.06.2023 17:18 25,9 C 30,6 C 22,2 C 36 % 1020,3 hPa 0,0 l/m 2 min 0 min 616 W/m 16,1 km/h (3 Bft) 93,62 %
04.06.2023 17:20 26,0 C 30,6 C 22,2 C 36 % 1020,3 hPa 0,0 l/m 2 min 0 min 610 W/m 9,7 km/h (2 Bft) 100,00 %
04.06.2023 17:22 26,1 C 31,1 C 22,2 C 36 % 1020,3 hPa 0,0 l/m 2 min 0 min 607 W/m 9,7 km/h (2 Bft) 97,87 %
04.06.2023 17:24 26,1 C 31,7 C 22,2 C 36 % 1020,3 hPa 0,0 l/m 2 min 0 min 600 W/m 9,7 km/h (2 Bft) 100,00 %
04.06.2023 17:26 26,2 C 30,6 C 22,8 C 36 % 1020,3 hPa 0,0 l/m 2 min 0 min 598 W/m 16,1 km/h (3 Bft) 97,87 %
04.06.2023 17:28 26,2 C 30,6 C 22,2 C 35 % 1020,3 hPa 0,0 l/m 2 min 0 min 593 W/m 12,9 km/h (3 Bft) 97,87 %
04.06.2023 17:30 26,1 C 30,6 C 22,2 C 36 % 1020,3 hPa 0,0 l/m 2 min 0 min 587 W/m 9,7 km/h (2 Bft) 97,83 %
04.06.2023 17:32 26,1 C 30,0 C 22,2 C 35 % 1020,3 hPa 0,0 l/m 2 min 0 min 584 W/m 16,1 km/h (3 Bft) 97,87 %
04.06.2023 17:34 26,0 C 30,0 C 22,2 C 35 % 1020,3 hPa 0,0 l/m 2 min 0 min 577 W/m 9,7 km/h (2 Bft) 97,87 %
04.06.2023 17:36 26,0 C 30,0 C 22,2 C 35 % 1020,3 hPa 0,0 l/m 2 min 0 min 570 W/m 6,4 km/h (2 Bft) 97,87 %
04.06.2023 17:38 26,1 C 30,6 C 22,2 C 35 % 1020,3 hPa 0,0 l/m 2 min 0 min 566 W/m 9,7 km/h (2 Bft) 97,87 %
04.06.2023 17:40 26,1 C 31,1 C 22,8 C 36 % 1020,3 hPa 0,0 l/m 2 min 0 min 560 W/m 9,7 km/h (2 Bft) 97,87 %
04.06.2023 17:42 26,1 C 30,6 C 22,2 C 36 % 1020,2 hPa 0,0 l/m 2 min 0 min 553 W/m 12,9 km/h (3 Bft) 97,87 %
04.06.2023 17:44 25,9 C 30,0 C 22,2 C 35 % 1020,3 hPa 0,0 l/m 2 min 0 min 548 W/m 19,3 km/h (3 Bft) 97,83 %
04.06.2023 17:46 25,9 C 30,0 C 22,2 C 35 % 1020,3 hPa 0,0 l/m 2 min 0 min 542 W/m 12,9 km/h (3 Bft) 97,87 %
04.06.2023 17:48 25,9 C 30,0 C 22,2 C 35 % 1020,1 hPa 0,0 l/m 2 min 0 min 538 W/m 12,9 km/h (3 Bft) 97,87 %
04.06.2023 17:50 26,0 C 30,6 C 22,2 C 36 % 1020,1 hPa 0,0 l/m 2 min 0 min 533 W/m 6,4 km/h (2 Bft) 97,87 %
04.06.2023 17:52 26,0 C 29,4 C 21,7 C 35 % 1020,1 hPa 0,0 l/m 2 min 0 min 528 W/m 12,9 km/h (3 Bft) 95,74 %
04.06.2023 17:54 25,8 C 29,4 C 21,7 C 34 % 1020,1 hPa 0,0 l/m 2 min 0 min 523 W/m 16,1 km/h (3 Bft) 97,87 %
04.06.2023 17:56 25,8 C 30,0 C 22,2 C 35 % 1020,1 hPa 0,0 l/m 2 min 0 min 519 W/m 9,7 km/h (2 Bft) 93,48 %
04.06.2023 17:58 25,9 C 30,6 C 22,8 C 36 % 1020,1 hPa 0,0 l/m 2 min 0 min 515 W/m 12,9 km/h (3 Bft) 97,87 %
04.06.2023 18:00 25,9 C 30,6 C 22,2 C 36 % 1020,1 hPa 0,0 l/m 2 min 0 min 510 W/m 16,1 km/h (3 Bft) 100,00 %
04.06.2023 18:02 25,8 C 30,0 C 22,2 C 36 % 1020,1 hPa 0,0 l/m 2 min 0 min 504 W/m 16,1 km/h (3 Bft) 97,87 %
04.06.2023 18:04 25,8 C 29,4 C 21,7 C 35 % 1020,1 hPa 0,0 l/m 2 min 0 min 499 W/m 19,3 km/h (3 Bft) 100,00 %
04.06.2023 18:07 25,7 C 29,4 C 22,2 C 35 % 1020,1 hPa 0,0 l/m 3 min 0 min 487 W/m 12,9 km/h (3 Bft) 100,00 %
04.06.2023 18:08 25,7 C 30,0 C 22,2 C 36 % 1020,1 hPa 0,0 l/m 1 min 0 min 490 W/m 12,9 km/h (3 Bft) 100,00 %
04.06.2023 18:12 25,7 C 31,1 C 22,2 C 37 % 1020,0 hPa 0,0 l/m 4 min 0 min 476 W/m 19,3 km/h (3 Bft) 100,00 %
04.06.2023 18:14 25,7 C 30,6 C 22,2 C 36 % 1020,0 hPa 0,0 l/m 2 min 0 min 470 W/m 9,7 km/h (2 Bft) 100,00 %
04.06.2023 18:16 25,6 C 30,6 C 22,2 C 36 % 1020,0 hPa 0,0 l/m 2 min 0 min 463 W/m 9,7 km/h (2 Bft) 97,87 %
04.06.2023 18:18 25,7 C 31,1 C 22,2 C 36 % 1020,0 hPa 0,0 l/m 2 min 0 min 457 W/m 9,7 km/h (2 Bft) 100,00 %
04.06.2023 18:20 25,8 C 30,0 C 22,2 C 35 % 1020,0 hPa 0,0 l/m 2 min 0 min 453 W/m 19,3 km/h (3 Bft) 100,00 %
04.06.2023 18:22 25,7 C 29,4 C 22,2 C 35 % 1020,0 hPa 0,0 l/m 2 min 0 min 446 W/m 12,9 km/h (3 Bft) 97,87 %
04.06.2023 18:24 25,5 C 29,4 C 22,2 C 36 % 1019,9 hPa 0,0 l/m 2 min 0 min 438 W/m 9,7 km/h (2 Bft) 98,00 %
04.06.2023 18:26 25,4 C 29,4 C 21,7 C 37 % 1020,0 hPa 0,0 l/m 2 min 0 min 431 W/m 12,9 km/h (3 Bft) 100,00 %
04.06.2023 18:28 25,4 C 29,4 C 22,2 C 37 % 1020,0 hPa 0,0 l/m 2 min 0 min 426 W/m 12,9 km/h (3 Bft) 97,87 %
04.06.2023 18:30 25,4 C 30,6 C 22,2 C 37 % 1019,9 hPa 0,0 l/m 2 min 0 min 422 W/m 9,7 km/h (2 Bft) 100,00 %
04.06.2023 18:32 25,4 C 30,0 C 21,7 C 37 % 1019,9 hPa 0,0 l/m 2 min 0 min 417 W/m 19,3 km/h (3 Bft) 100,00 %
04.06.2023 18:34 25,4 C 30,0 C 21,7 C 37 % 1019,9 hPa 0,0 l/m 2 min 0 min 412 W/m 12,9 km/h (3 Bft) 100,00 %
04.06.2023 18:36 25,4 C 29,4 C 21,7 C 36 % 1019,9 hPa 0,0 l/m 2 min 0 min 407 W/m 16,1 km/h (3 Bft) 97,83 %
04.06.2023 18:38 25,4 C 29,4 C 21,7 C 36 % 1019,9 hPa 0,0 l/m 2 min 0 min 401 W/m 12,9 km/h (3 Bft) 100,00 %
04.06.2023 18:40 25,4 C 28,9 C 21,7 C 36 % 1019,9 hPa 0,0 l/m 2 min 0 min 395 W/m 16,1 km/h (3 Bft) 100,00 %
04.06.2023 18:42 25,3 C 28,9 C 21,7 C 36 % 1019,9 hPa 0,0 l/m 2 min 0 min 388 W/m 12,9 km/h (3 Bft) 100,00 %
04.06.2023 18:44 25,2 C 28,9 C 21,7 C 36 % 1019,9 hPa 0,0 l/m 2 min 0 min 384 W/m 16,1 km/h (3 Bft) 100,00 %
04.06.2023 18:46 25,2 C 29,4 C 21,7 C 37 % 1019,9 hPa 0,0 l/m 2 min 0 min 376 W/m 6,4 km/h (2 Bft) 100,00 %
04.06.2023 18:48 25,2 C 30,0 C 21,7 C 37 % 1019,9 hPa 0,0 l/m 2 min 0 min 369 W/m 12,9 km/h (3 Bft) 100,00 %
04.06.2023 18:50 25,2 C 30,0 C 22,2 C 36 % 1019,9 hPa 0,0 l/m 2 min 0 min 364 W/m 9,7 km/h (2 Bft) 100,00 %
04.06.2023 18:52 25,2 C 30,6 C 21,7 C 36 % 1019,9 hPa 0,0 l/m 2 min 0 min 359 W/m 6,4 km/h (2 Bft) 97,87 %
04.06.2023 18:54 25,3 C 30,6 C 21,7 C 37 % 1019,9 hPa 0,0 l/m 2 min 0 min 356 W/m 12,9 km/h (3 Bft) 97,87 %
04.06.2023 18:56 25,2 C 30,0 C 21,7 C 37 % 1019,9 hPa 0,0 l/m 2 min 0 min 347 W/m 19,3 km/h (3 Bft) 95,74 %
04.06.2023 18:58 25,2 C 30,0 C 21,7 C 36 % 1019,9 hPa 0,0 l/m 2 min 0 min 340 W/m 9,7 km/h (2 Bft) 97,87 %
04.06.2023 19:00 25,2 C 30,0 C 21,7 C 38 % 1020,0 hPa 0,0 l/m 2 min 0 min 334 W/m 12,9 km/h (3 Bft) 95,74 %
04.06.2023 19:02 25,2 C 30,0 C 21,7 C 38 % 1019,9 hPa 0,0 l/m 2 min 0 min 329 W/m 6,4 km/h (2 Bft) 95,65 %
04.06.2023 19:04 25,1 C 28,9 C 21,1 C 37 % 1019,9 hPa 0,0 l/m 2 min 0 min 324 W/m 12,9 km/h (3 Bft) 95,83 %
04.06.2023 19:06 25,0 C 28,3 C 20,6 C 36 % 1019,8 hPa 0,0 l/m 2 min 0 min 319 W/m 16,1 km/h (3 Bft) 95,74 %
04.06.2023 19:08 24,9 C 28,3 C 20,6 C 36 % 1019,8 hPa 0,0 l/m 2 min 0 min 313 W/m 6,4 km/h (2 Bft) 97,87 %
04.06.2023 19:10 24,8 C 28,3 C 20,0 C 37 % 1019,8 hPa 0,0 l/m 2 min 0 min 308 W/m 9,7 km/h (2 Bft) 95,74 %
04.06.2023 19:12 24,7 C 28,3 C 20,0 C 38 % 1019,8 hPa 0,0 l/m 2 min 0 min 305 W/m 12,9 km/h (3 Bft) 95,74 %
04.06.2023 19:14 24,7 C 27,8 C 20,0 C 37 % 1019,8 hPa 0,0 l/m 2 min 0 min 296 W/m 9,7 km/h (2 Bft) 97,87 %
04.06.2023 19:16 24,6 C 27,2 C 19,4 C 37 % 1019,8 hPa 0,0 l/m 2 min 0 min 290 W/m 19,3 km/h (3 Bft) 95,65 %
04.06.2023 19:18 24,5 C 27,2 C 18,9 C 38 % 1019,8 hPa 0,0 l/m 2 min 0 min 284 W/m 19,3 km/h (3 Bft) 95,74 %
04.06.2023 19:20 24,4 C 27,2 C 18,9 C 39 % 1019,8 hPa 0,0 l/m 2 min 0 min 279 W/m 9,7 km/h (2 Bft) 95,74 %
04.06.2023 19:22 24,4 C 27,2 C 18,9 C 38 % 1019,8 hPa 0,0 l/m 2 min 0 min 272 W/m 12,9 km/h (3 Bft) 97,87 %
04.06.2023 19:24 24,2 C 26,7 C 18,9 C 41 % 1019,8 hPa 0,0 l/m 2 min 0 min 266 W/m 9,7 km/h (2 Bft) 95,74 %
04.06.2023 19:26 24,1 C 26,1 C 18,3 C 40 % 1019,8 hPa 0,0 l/m 2 min 0 min 259 W/m 16,1 km/h (3 Bft) 91,49 %
04.06.2023 19:28 24,0 C 25,6 C 18,3 C 39 % 1019,8 hPa 0,0 l/m 2 min 0 min 253 W/m 12,9 km/h (3 Bft) 95,65 %
04.06.2023 19:30 23,9 C 25,6 C 18,3 C 41 % 1019,8 hPa 0,0 l/m 2 min 0 min 248 W/m 9,7 km/h (2 Bft) 95,74 %
04.06.2023 19:32 23,8 C 25,0 C 18,3 C 40 % 1019,8 hPa 0,0 l/m 2 min 0 min 239 W/m 12,9 km/h (3 Bft) 95,74 %
04.06.2023 19:34 23,8 C 23,9 C 18,3 C 40 % 1019,7 hPa 0,0 l/m 2 min 0 min 233 W/m 16,1 km/h (3 Bft) 95,74 %
04.06.2023 19:36 23,8 C 23,3 C 18,3 C 40 % 1019,8 hPa 0,0 l/m 2 min 0 min 223 W/m 12,9 km/h (3 Bft) 97,87 %
04.06.2023 19:38 23,8 C 23,3 C 18,3 C 41 % 1019,8 hPa 0,0 l/m 2 min 0 min 216 W/m 6,4 km/h (2 Bft) 97,14 %
04.06.2023 19:40 23,7 C 22,8 C 18,3 C 41 % 1019,8 hPa 0,0 l/m 2 min 0 min 209 W/m 16,1 km/h (3 Bft) 98,31 %
04.06.2023 19:42 23,6 C 22,8 C 18,3 C 41 % 1019,8 hPa 0,0 l/m 2 min 0 min 205 W/m 12,9 km/h (3 Bft) 97,14 %
04.06.2023 19:44 23,6 C 22,8 C 18,3 C 43 % 1019,8 hPa 0,0 l/m 2 min 0 min 199 W/m 6,4 km/h (2 Bft) 95,74 %
04.06.2023 19:46 23,4 C 22,8 C 18,3 C 41 % 1019,8 hPa 0,0 l/m 2 min 0 min 193 W/m 9,7 km/h (2 Bft) 97,83 %
04.06.2023 19:48 23,4 C 22,8 C 18,3 C 43 % 1019,8 hPa 0,0 l/m 2 min 0 min 187 W/m 9,7 km/h (2 Bft) 98,31 %
04.06.2023 19:50 23,3 C 22,8 C 18,3 C 41 % 1019,9 hPa 0,0 l/m 2 min 0 min 179 W/m 9,7 km/h (2 Bft) 94,29 %
04.06.2023 19:52 23,2 C 22,8 C 18,3 C 41 % 1019,8 hPa 0,0 l/m 2 min 0 min 135 W/m 6,4 km/h (2 Bft) 96,61 %
04.06.2023 19:54 23,2 C 22,8 C 18,3 C 43 % 1019,9 hPa 0,0 l/m 0 min 0 min 77 W/m 12,9 km/h (3 Bft) 94,29 %
04.06.2023 19:56 23,1 C 22,2 C 18,3 C 42 % 1019,9 hPa 0,0 l/m 0 min 0 min 60 W/m 6,4 km/h (2 Bft) 95,74 %
04.06.2023 19:58 23,0 C 22,2 C 17,8 C 43 % 1019,9 hPa 0,0 l/m 0 min 0 min 58 W/m 9,7 km/h (2 Bft) 95,65 %
04.06.2023 20:00 22,9 C 22,2 C 17,8 C 42 % 1019,9 hPa 0,0 l/m 0 min 0 min 56 W/m 12,9 km/h (3 Bft) 95,74 %
04.06.2023 20:02 22,8 C 22,2 C 17,8 C 42 % 1019,9 hPa 0,0 l/m 0 min 0 min 55 W/m 12,9 km/h (3 Bft) 97,87 %
04.06.2023 20:04 22,8 C 22,2 C 17,8 C 42 % 1019,9 hPa 0,0 l/m 0 min 0 min 54 W/m 9,7 km/h (2 Bft) 91,67 %
04.06.2023 20:06 22,7 C 22,2 C 17,8 C 43 % 1019,9 hPa 0,0 l/m 0 min 0 min 53 W/m 6,4 km/h (2 Bft) 98,31 %
04.06.2023 20:08 22,7 C 22,2 C 17,8 C 44 % 1019,9 hPa 0,0 l/m 0 min 0 min 53 W/m 6,4 km/h (2 Bft) 97,14 %
04.06.2023 20:10 22,6 C 21,7 C 17,8 C 44 % 1019,9 hPa 0,0 l/m 0 min 0 min 51 W/m 6,4 km/h (2 Bft) 95,74 %
04.06.2023 20:12 22,5 C 21,7 C 17,8 C 44 % 1019,9 hPa 0,0 l/m 0 min 0 min 50 W/m 6,4 km/h (2 Bft) 97,83 %
04.06.2023 20:14 22,5 C 21,7 C 17,8 C 45 % 1019,9 hPa 0,0 l/m 0 min 0 min 49 W/m 6,4 km/h (2 Bft) 97,87 %
04.06.2023 20:16 22,4 C 21,7 C 17,8 C 44 % 1020,0 hPa 0,0 l/m 0 min 0 min 48 W/m 16,1 km/h (3 Bft) 95,74 %
04.06.2023 20:18 22,4 C 21,7 C 17,8 C 45 % 1020,0 hPa 0,0 l/m 0 min 0 min 47 W/m 9,7 km/h (2 Bft) 97,87 %
04.06.2023 20:20 22,4 C 21,7 C 17,8 C 45 % 1020,0 hPa 0,0 l/m 0 min 0 min 46 W/m 9,7 km/h (2 Bft) 97,87 %
04.06.2023 20:22 22,3 C 21,7 C 17,2 C 46 % 1020,0 hPa 0,0 l/m 0 min 0 min 45 W/m 6,4 km/h (2 Bft) 97,87 %
04.06.2023 20:24 22,2 C 21,7 C 17,2 C 46 % 1020,0 hPa 0,0 l/m 0 min 0 min 43 W/m 3,2 km/h (1 Bft) 97,87 %
04.06.2023 20:26 22,2 C 21,1 C 17,2 C 46 % 1020,0 hPa 0,0 l/m 0 min 0 min 42 W/m 6,4 km/h (2 Bft) 97,83 %
04.06.2023 20:28 22,1 C 21,1 C 17,2 C 47 % 1019,9 hPa 0,0 l/m 0 min 0 min 41 W/m 6,4 km/h (2 Bft) 97,87 %
04.06.2023 20:30 22,1 C 21,1 C 17,2 C 46 % 1019,9 hPa 0,0 l/m 0 min 0 min 40 W/m 6,4 km/h (2 Bft) 95,74 %
04.06.2023 20:32 22,0 C 21,1 C 17,2 C 46 % 1020,0 hPa 0,0 l/m 0 min 0 min 39 W/m 6,4 km/h (2 Bft) 95,74 %
04.06.2023 20:34 21,9 C 21,1 C 17,2 C 46 % 1019,9 hPa 0,0 l/m 0 min 0 min 38 W/m 6,4 km/h (2 Bft) 95,74 %
04.06.2023 20:36 21,9 C 21,1 C 17,2 C 46 % 1019,9 hPa 0,0 l/m 0 min 0 min 37 W/m 16,1 km/h (3 Bft) 97,87 %
04.06.2023 20:38 21,8 C 21,1 C 17,2 C 45 % 1019,9 hPa 0,0 l/m 0 min 0 min 35 W/m 9,7 km/h (2 Bft) 97,83 %
04.06.2023 20:40 21,8 C 21,1 C 17,2 C 46 % 1019,9 hPa 0,0 l/m 0 min 0 min 34 W/m 16,1 km/h (3 Bft) 97,87 %
04.06.2023 20:42 21,8 C 21,1 C 17,2 C 46 % 1019,9 hPa 0,0 l/m 0 min 0 min 33 W/m 6,4 km/h (2 Bft) 100,00 %
04.06.2023 20:44 21,7 C 21,1 C 17,2 C 47 % 1020,0 hPa 0,0 l/m 0 min 0 min 32 W/m 6,4 km/h (2 Bft) 100,00 %
04.06.2023 20:46 21,7 C 21,1 C 17,2 C 46 % 1020,0 hPa 0,0 l/m 0 min 0 min 31 W/m 3,2 km/h (1 Bft) 100,00 %
04.06.2023 20:48 21,7 C 21,1 C 17,2 C 47 % 1020,0 hPa 0,0 l/m 0 min 0 min 30 W/m 6,4 km/h (2 Bft) 100,00 %
04.06.2023 20:50 21,6 C 20,6 C 16,7 C 47 % 1020,0 hPa 0,0 l/m 0 min 0 min 28 W/m 9,7 km/h (2 Bft) 100,00 %
04.06.2023 20:52 21,6 C 20,6 C 16,7 C 47 % 1020,0 hPa 0,0 l/m 0 min 0 min 27 W/m 3,2 km/h (1 Bft) 100,00 %
04.06.2023 20:54 21,6 C 20,6 C 16,7 C 46 % 1020,0 hPa 0,0 l/m 0 min 0 min 26 W/m 3,2 km/h (1 Bft) 100,00 %
04.06.2023 20:56 21,5 C 20,6 C 16,7 C 46 % 1020,0 hPa 0,0 l/m 0 min 0 min 25 W/m 6,4 km/h (2 Bft) 100,00 %
04.06.2023 20:58 21,4 C 20,6 C 16,7 C 47 % 1020,0 hPa 0,0 l/m 0 min 0 min 25 W/m 6,4 km/h (2 Bft) 97,87 %
04.06.2023 21:00 21,4 C 20,6 C 16,7 C 48 % 1020,0 hPa 0,0 l/m 0 min 0 min 24 W/m 9,7 km/h (2 Bft) 100,00 %
04.06.2023 21:02 21,4 C 20,0 C 16,7 C 47 % 1020,0 hPa 0,0 l/m 0 min 0 min 23 W/m 9,7 km/h (2 Bft) 100,00 %
04.06.2023 21:04 21,3 C 20,0 C 16,7 C 48 % 1020,0 hPa 0,0 l/m 0 min 0 min 21 W/m 6,4 km/h (2 Bft) 100,00 %
04.06.2023 21:06 21,2 C 20,0 C 16,1 C 49 % 1020,0 hPa 0,0 l/m 0 min 0 min 21 W/m 3,2 km/h (1 Bft) 100,00 %
04.06.2023 21:08 21,2 C 20,0 C 16,1 C 49 % 1020,0 hPa 0,0 l/m 0 min 0 min 19 W/m 6,4 km/h (2 Bft) 100,00 %
04.06.2023 21:10 21,2 C 20,0 C 16,1 C 48 % 1020,1 hPa 0,0 l/m 0 min 0 min 19 W/m 6,4 km/h (2 Bft) 100,00 %
04.06.2023 21:12 21,1 C 20,0 C 16,1 C 48 % 1020,1 hPa 0,0 l/m 0 min 0 min 18 W/m 3,2 km/h (1 Bft) 100,00 %
04.06.2023 21:14 21,1 C 20,0 C 16,1 C 50 % 1020,1 hPa 0,0 l/m 0 min 0 min 17 W/m 3,2 km/h (1 Bft) 97,87 %
04.06.2023 21:16 21,0 C 20,0 C 16,1 C 50 % 1020,1 hPa 0,0 l/m 0 min 0 min 16 W/m 6,4 km/h (2 Bft) 100,00 %
04.06.2023 21:18 20,9 C 19,4 C 16,1 C 49 % 1020,1 hPa 0,0 l/m 0 min 0 min 14 W/m 3,2 km/h (1 Bft) 100,00 %
04.06.2023 21:20 20,8 C 19,4 C 16,1 C 49 % 1020,1 hPa 0,0 l/m 0 min 0 min 14 W/m 6,4 km/h (2 Bft) 100,00 %
04.06.2023 21:22 20,8 C 19,4 C 16,1 C 49 % 1020,1 hPa 0,0 l/m 0 min 0 min 12 W/m 3,2 km/h (1 Bft) 100,00 %
04.06.2023 21:24 20,7 C 19,4 C 16,1 C 49 % 1020,2 hPa 0,0 l/m 0 min 0 min 12 W/m 6,4 km/h (2 Bft) 97,87 %
04.06.2023 21:26 20,7 C 19,4 C 16,1 C 50 % 1020,2 hPa 0,0 l/m 0 min 0 min 11 W/m 3,2 km/h (1 Bft) 95,74 %
04.06.2023 21:28 20,6 C 19,4 C 16,1 C 49 % 1020,2 hPa 0,0 l/m 0 min 0 min 11 W/m 3,2 km/h (1 Bft) 95,74 %
04.06.2023 21:30 20,6 C 19,4 C 15,6 C 50 % 1020,2 hPa 0,0 l/m 0 min 0 min 9 W/m 3,2 km/h (1 Bft) 93,62 %
04.06.2023 21:32 20,6 C 19,4 C 15,6 C 50 % 1020,3 hPa 0,0 l/m 0 min 0 min 8 W/m 3,2 km/h (1 Bft) 95,65 %
04.06.2023 21:34 20,5 C 18,9 C 15,6 C 52 % 1020,3 hPa 0,0 l/m 0 min 0 min 7 W/m 0,0 km/h (0 Bft) 95,74 %
04.06.2023 21:36 20,5 C 18,9 C 15,6 C 51 % 1020,3 hPa 0,0 l/m 0 min 0 min 7 W/m 3,2 km/h (1 Bft) 95,74 %
04.06.2023 21:38 20,4 C 18,9 C 15,0 C 53 % 1020,4 hPa 0,0 l/m 0 min 0 min 5 W/m 0,0 km/h (0 Bft) 97,87 %
04.06.2023 21:40 20,4 C 18,9 C 15,0 C 52 % 1020,4 hPa 0,0 l/m 0 min 0 min 5 W/m 6,4 km/h (2 Bft) 91,49 %
04.06.2023 21:42 20,4 C 18,9 C 15,0 C 53 % 1020,4 hPa 0,0 l/m 0 min 0 min 4 W/m 0,0 km/h (0 Bft) 93,62 %
04.06.2023 21:44 20,3 C 18,9 C 15,0 C 53 % 1020,5 hPa 0,0 l/m 0 min 0 min 0 W/m 0,0 km/h (0 Bft) 93,48 %
04.06.2023 21:46 20,2 C 18,3 C 15,0 C 56 % 1020,5 hPa 0,0 l/m 0 min 0 min 0 W/m 0,0 km/h (0 Bft) 93,62 %
04.06.2023 21:48 20,1 C 18,3 C 15,0 C 54 % 1020,5 hPa 0,0 l/m 0 min 0 min 0 W/m 3,2 km/h (1 Bft) 95,74 %
04.06.2023 21:50 20,1 C 18,3 C 14,4 C 54 % 1020,5 hPa 0,0 l/m 0 min 0 min 0 W/m 0,0 km/h (0 Bft) 95,74 %
04.06.2023 21:52 20,0 C 18,3 C 14,4 C 54 % 1020,5 hPa 0,0 l/m 0 min 0 min 0 W/m 3,2 km/h (1 Bft) 95,74 %
04.06.2023 21:54 19,9 C 18,3 C 14,4 C 55 % 1020,5 hPa 0,0 l/m 0 min 0 min 0 W/m 3,2 km/h (1 Bft) 97,87 %
04.06.2023 21:56 19,9 C 18,3 C 14,4 C 54 % 1020,5 hPa 0,0 l/m 0 min 0 min 0 W/m 3,2 km/h (1 Bft) 95,65 %
04.06.2023 21:58 19,8 C 18,3 C 14,4 C 53 % 1020,5 hPa 0,0 l/m 0 min 0 min 0 W/m 3,2 km/h (1 Bft) 97,87 %
04.06.2023 22:00 19,7 C 17,8 C 14,4 C 54 % 1020,5 hPa 0,0 l/m 0 min 0 min 0 W/m 3,2 km/h (1 Bft) 97,87 %
04.06.2023 22:02 19,7 C 17,8 C 14,4 C 56 % 1020,5 hPa 0,0 l/m 0 min 0 min 0 W/m 0,0 km/h (0 Bft) 97,87 %
04.06.2023 22:04 19,6 C 17,8 C 14,4 C 57 % 1020,6 hPa 0,0 l/m 0 min 0 min 0 W/m 0,0 km/h (0 Bft) 97,96 %
04.06.2023 22:06 19,6 C 17,8 C 13,9 C 57 % 1020,6 hPa 0,0 l/m 0 min 0 min 0 W/m 0,0 km/h (0 Bft) 98,28 %
04.06.2023 22:08 19,4 C 17,8 C 13,9 C 57 % 1020,6 hPa 0,0 l/m 0 min 0 min 0 W/m 3,2 km/h (1 Bft) 97,14 %
04.06.2023 22:10 19,4 C 17,8 C 13,9 C 55 % 1020,6 hPa 0,0 l/m 0 min 0 min 0 W/m 3,2 km/h (1 Bft) 96,30 %
04.06.2023 22:12 19,3 C 17,8 C 13,9 C 56 % 1020,6 hPa 0,0 l/m 0 min 0 min 0 W/m 6,4 km/h (2 Bft) 97,83 %
04.06.2023 22:14 19,3 C 17,8 C 13,9 C 54 % 1020,6 hPa 0,0 l/m 0 min 0 min 0 W/m 3,2 km/h (1 Bft) 97,87 %
04.06.2023 22:16 19,2 C 17,8 C 13,9 C 54 % 1020,6 hPa 0,0 l/m 0 min 0 min 0 W/m 3,2 km/h (1 Bft) 97,87 %
04.06.2023 22:18 19,2 C 17,8 C 13,9 C 55 % 1020,6 hPa 0,0 l/m 0 min 0 min 0 W/m 3,2 km/h (1 Bft) 100,00 %
04.06.2023 22:20 19,1 C 17,8 C 13,9 C 56 % 1020,6 hPa 0,0 l/m 0 min 0 min 0 W/m 3,2 km/h (1 Bft) 97,87 %
04.06.2023 22:22 19,1 C 17,8 C 13,9 C 55 % 1020,6 hPa 0,0 l/m 0 min 0 min 0 W/m 3,2 km/h (1 Bft) 97,87 %
04.06.2023 22:24 19,0 C 17,2 C 13,9 C 55 % 1020,7 hPa 0,0 l/m 0 min 0 min 0 W/m 0,0 km/h (0 Bft) 100,00 %
04.06.2023 22:26 19,0 C 17,2 C 13,9 C 56 % 1020,7 hPa 0,0 l/m 0 min 0 min 0 W/m 0,0 km/h (0 Bft) 100,00 %
04.06.2023 22:28 18,9 C 17,2 C 13,9 C 57 % 1020,7 hPa 0,0 l/m 0 min 0 min 0 W/m 0,0 km/h (0 Bft) 100,00 %
04.06.2023 22:30 18,9 C 17,2 C 13,9 C 57 % 1020,7 hPa 0,0 l/m 0 min 0 min 0 W/m 0,0 km/h (0 Bft) 95,74 %
04.06.2023 22:32 18,8 C 17,2 C 13,3 C 57 % 1020,7 hPa 0,0 l/m 0 min 0 min 0 W/m 0,0 km/h (0 Bft) 97,87 %
04.06.2023 22:34 18,8 C 17,2 C 13,3 C 57 % 1020,8 hPa 0,0 l/m 0 min 0 min 0 W/m 0,0 km/h (0 Bft) 97,87 %
04.06.2023 22:36 18,8 C 17,2 C 13,3 C 57 % 1020,8 hPa 0,0 l/m 0 min 0 min 0 W/m 0,0 km/h (0 Bft) 97,87 %
04.06.2023 22:38 18,7 C 16,7 C 13,3 C 57 % 1020,8 hPa 0,0 l/m 0 min 0 min 0 W/m 3,2 km/h (1 Bft) 97,87 %
04.06.2023 22:40 18,7 C 16,7 C 13,3 C 58 % 1020,8 hPa 0,0 l/m 0 min 0 min 0 W/m 0,0 km/h (0 Bft) 97,83 %
04.06.2023 22:42 18,6 C 16,7 C 13,3 C 59 % 1020,8 hPa 0,0 l/m 0 min 0 min 0 W/m 3,2 km/h (1 Bft) 97,87 %
04.06.2023 22:44 18,6 C 16,7 C 13,3 C 59 % 1020,8 hPa 0,0 l/m 0 min 0 min 0 W/m 0,0 km/h (0 Bft) 97,87 %
04.06.2023 22:46 18,5 C 16,7 C 13,3 C 59 % 1020,8 hPa 0,0 l/m 0 min 0 min 0 W/m 3,2 km/h (1 Bft) 97,92 %
04.06.2023 22:48 18,4 C 16,7 C 13,3 C 57 % 1020,8 hPa 0,0 l/m 0 min 0 min 0 W/m 0,0 km/h (0 Bft) 95,74 %
04.06.2023 22:50 18,4 C 16,7 C 12,8 C 61 % 1020,8 hPa 0,0 l/m 0 min 0 min 0 W/m 0,0 km/h (0 Bft) 97,87 %
04.06.2023 22:52 18,4 C 16,7 C 12,8 C 61 % 1020,9 hPa 0,0 l/m 0 min 0 min 0 W/m 0,0 km/h (0 Bft) 97,87 %
04.06.2023 22:54 18,3 C 16,7 C 12,8 C 61 % 1020,9 hPa 0,0 l/m 0 min 0 min 0 W/m 0,0 km/h (0 Bft) 97,83 %
04.06.2023 22:56 18,3 C 16,7 C 12,8 C 61 % 1020,9 hPa 0,0 l/m 0 min 0 min 0 W/m 3,2 km/h (1 Bft) 97,96 %
04.06.2023 22:58 18,2 C 16,1 C 12,8 C 60 % 1020,9 hPa 0,0 l/m 0 min 0 min 0 W/m 0,0 km/h (0 Bft) 93,75 %
04.06.2023 23:00 18,2 C 16,1 C 12,8 C 60 % 1020,9 hPa 0,0 l/m 0 min 0 min 0 W/m 0,0 km/h (0 Bft) 97,87 %
04.06.2023 23:02 18,1 C 16,1 C 12,8 C 60 % 1021,0 hPa 0,0 l/m 0 min 0 min 0 W/m 3,2 km/h (1 Bft) 95,74 %
04.06.2023 23:04 18,1 C 16,1 C 12,8 C 61 % 1020,9 hPa 0,0 l/m 0 min 0 min 0 W/m 0,0 km/h (0 Bft) 95,74 %
04.06.2023 23:06 18,0 C 16,1 C 12,8 C 61 % 1021,0 hPa 0,0 l/m 0 min 0 min 0 W/m 0,0 km/h (0 Bft) 95,00 %
04.06.2023 23:08 17,9 C 16,1 C 12,8 C 62 % 1021,0 hPa 0,0 l/m 0 min 0 min 0 W/m 0,0 km/h (0 Bft) 94,29 %
04.06.2023 23:10 17,9 C 16,1 C 12,8 C 62 % 1021,0 hPa 0,0 l/m 0 min 0 min 0 W/m 0,0 km/h (0 Bft) 95,74 %
04.06.2023 23:12 17,8 C 16,1 C 12,8 C 62 % 1021,0 hPa 0,0 l/m 0 min 0 min 0 W/m 0,0 km/h (0 Bft) 97,87 %
04.06.2023 23:14 17,8 C 16,1 C 12,8 C 61 % 1021,0 hPa 0,0 l/m 0 min 0 min 0 W/m 0,0 km/h (0 Bft) 97,87 %
04.06.2023 23:16 17,7 C 16,1 C 12,8 C 62 % 1021,0 hPa 0,0 l/m 0 min 0 min 0 W/m 0,0 km/h (0 Bft) 97,87 %
04.06.2023 23:18 17,7 C 16,1 C 12,2 C 62 % 1021,0 hPa 0,0 l/m 0 min 0 min 0 W/m 3,2 km/h (1 Bft) 97,83 %
04.06.2023 23:20 17,6 C 15,6 C 12,2 C 63 % 1021,0 hPa 0,0 l/m 0 min 0 min 0 W/m 0,0 km/h (0 Bft) 97,87 %
04.06.2023 23:22 17,6 C 15,6 C 12,2 C 63 % 1021,0 hPa 0,0 l/m 0 min 0 min 0 W/m 0,0 km/h (0 Bft) 95,83 %
04.06.2023 23:24 17,5 C 15,6 C 12,2 C 63 % 1021,0 hPa 0,0 l/m 0 min 0 min 0 W/m 0,0 km/h (0 Bft) 97,87 %
04.06.2023 23:26 17,4 C 15,6 C 12,2 C 62 % 1021,0 hPa 0,0 l/m 0 min 0 min 0 W/m 0,0 km/h (0 Bft) 97,87 %
04.06.2023 23:28 17,4 C 15,6 C 12,2 C 62 % 1021,0 hPa 0,0 l/m 0 min 0 min 0 W/m 0,0 km/h (0 Bft) 97,87 %
04.06.2023 23:30 17,4 C 15,6 C 12,2 C 63 % 1021,1 hPa 0,0 l/m 0 min 0 min 0 W/m 0,0 km/h (0 Bft) 97,87 %
04.06.2023 23:32 17,4 C 15,6 C 12,2 C 63 % 1021,1 hPa 0,0 l/m 0 min 0 min 0 W/m 0,0 km/h (0 Bft) 97,87 %
04.06.2023 23:34 17,3 C 15,6 C 12,2 C 64 % 1021,1 hPa 0,0 l/m 0 min 0 min 0 W/m 0,0 km/h (0 Bft) 97,87 %
04.06.2023 23:36 17,3 C 15,6 C 12,2 C 63 % 1021,1 hPa 0,0 l/m 0 min 0 min 0 W/m 0,0 km/h (0 Bft) 97,87 %
04.06.2023 23:38 17,2 C 15,6 C 12,2 C 64 % 1021,1 hPa 0,0 l/m 0 min 0 min 0 W/m 0,0 km/h (0 Bft) 100,00 %
04.06.2023 23:40 17,2 C 15,6 C 12,2 C 63 % 1021,2 hPa 0,0 l/m 0 min 0 min 0 W/m 0,0 km/h (0 Bft) 100,00 %
04.06.2023 23:42 17,1 C 15,6 C 12,2 C 64 % 1021,1 hPa 0,0 l/m 0 min 0 min 0 W/m 0,0 km/h (0 Bft) 100,00 %
04.06.2023 23:44 17,1 C 15,6 C 12,2 C 64 % 1021,1 hPa 0,0 l/m 0 min 0 min 0 W/m 0,0 km/h (0 Bft) 97,83 %
04.06.2023 23:46 17,1 C 15,6 C 11,7 C 63 % 1021,1 hPa 0,0 l/m 0 min 0 min 0 W/m 0,0 km/h (0 Bft) 97,87 %
04.06.2023 23:48 17,0 C 15,6 C 12,2 C 63 % 1021,1 hPa 0,0 l/m 0 min 0 min 0 W/m 0,0 km/h (0 Bft) 97,87 %
04.06.2023 23:50 16,9 C 15,6 C 11,7 C 64 % 1021,1 hPa 0,0 l/m 0 min 0 min 0 W/m 0,0 km/h (0 Bft) 100,00 %
04.06.2023 23:52 16,9 C 15,6 C 11,7 C 64 % 1021,1 hPa 0,0 l/m 0 min 0 min 0 W/m 0,0 km/h (0 Bft) 97,87 %
04.06.2023 23:54 16,8 C 15,6 C 11,7 C 65 % 1021,1 hPa 0,0 l/m 0 min 0 min 0 W/m 0,0 km/h (0 Bft) 100,00 %
04.06.2023 23:56 16,8 C 15,0 C 11,7 C 65 % 1021,1 hPa 0,0 l/m 0 min 0 min 0 W/m 0,0 km/h (0 Bft) 97,87 %
04.06.2023 23:58 16,8 C 15,0 C 11,7 C 66 % 1021,2 hPa 0,0 l/m 0 min 0 min 0 W/m 3,2 km/h (1 Bft) 100,00 %
_ Min-Zeit 05:48 05:02 04:44 15:44 19:34 - - - - 01:58 06:20
Minimum _ 11,1 C 10,0 C 7,2 C 33 % 1019,7 hPa - - - - 0,0 km/h (0 Bft) 48,15 %
_ Max-Zeit 17:26 15:16 13:22 06:40 10:56 00:00 12:08 00:00 13:30 11:50 00:04
Maximum _ 26,2 C 32,8 C 28,9 C 80 % 1021,8 hPa 0,0 l/m 4 min 0 min 939 W/m 25,7 km/h
NO (4 Bft)
100,00 %
Durchschnitt _ 19,3 C 20,9 C 15,7 C 52 % 1020,9 hPa #0,0 l/m #12:08 h #0 min. 509 W/m 7,5 km/h (2 Bft) 97,34 %
© 2023 W. Hausmann